DAL89 KLAX-RJAA
Flight info
| Callsign | DAL89 |
|---|---|
| Flight time | 11h 28m |
| Altitude | 34000 |
| Route | SUMMR2 MCKEY DCT LIBBO DCT BRINY DCT BOARS DCT AMAKR DCT REDWD DCT 42N130W 50N140W/N0471F360 52N150W 52N160W 50N170W/N0481F380 49N180E 46N170E 43N160E/N0470F400 EMRON OTR9 AVBET Y809 SUPOK |
| Aircraft | MD11/H-SDE1E2E3FGHIJ2J3J4J5M1RWXY/LB1D1 |
Departure
| Time | 2026-05-07 04:07 |
|---|---|
| Airport | Los Angeles International Airport (KLAX) |
Arrival
| Time | 2026-05-07 15:36 |
|---|---|
| Airport | Narita International Airport (RJAA) |
| Time | Latitude | Longitude | Altitude | Speed | Heading |
|---|---|---|---|---|---|
| 2026-05-07 02:39 | 33.94460 | -118.41138 | 0 ft | 0 kts | 84° |
| 2026-05-07 03:55 | 33.94458 | -118.41161 | 101 ft | 4 kts | 84° |
| 2026-05-07 03:55 | 33.94455 | -118.41193 | 102 ft | 4 kts | 84° |
| 2026-05-07 03:55 | 33.94454 | -118.41218 | 102 ft | 4 kts | 73° |
| 2026-05-07 03:55 | 33.94445 | -118.41238 | 101 ft | 4 kts | 23° |
| 2026-05-07 03:56 | 33.94422 | -118.41244 | 100 ft | 3 kts | 353° |
| 2026-05-07 03:56 | 33.94396 | -118.41240 | 102 ft | 3 kts | 353° |
| 2026-05-07 03:56 | 33.94392 | -118.41240 | 102 ft | 1 kts | 353° |
| 2026-05-07 04:01 | 33.94406 | -118.41242 | 104 ft | 4 kts | 353° |
| 2026-05-07 04:01 | 33.94452 | -118.41249 | 103 ft | 9 kts | 353° |
| 2026-05-07 04:01 | 33.94520 | -118.41259 | 103 ft | 9 kts | 353° |
| 2026-05-07 04:02 | 33.94578 | -118.41268 | 103 ft | 7 kts | 353° |
| 2026-05-07 04:02 | 33.94624 | -118.41274 | 104 ft | 8 kts | 353° |
| 2026-05-07 04:02 | 33.94703 | -118.41286 | 104 ft | 15 kts | 353° |
| 2026-05-07 04:02 | 33.94776 | -118.41278 | 106 ft | 3 kts | 33° |
| 2026-05-07 04:03 | 33.94797 | -118.41230 | 107 ft | 13 kts | 76° |
| 2026-05-07 04:03 | 33.94813 | -118.41102 | 108 ft | 15 kts | 83° |
| 2026-05-07 04:03 | 33.94826 | -118.40963 | 108 ft | 19 kts | 84° |
| 2026-05-07 04:03 | 33.94842 | -118.40794 | 107 ft | 22 kts | 83° |
| 2026-05-07 04:04 | 33.94862 | -118.40598 | 107 ft | 25 kts | 83° |
| 2026-05-07 04:04 | 33.94886 | -118.40379 | 107 ft | 28 kts | 83° |
| 2026-05-07 04:04 | 33.94909 | -118.40151 | 107 ft | 28 kts | 83° |
| 2026-05-07 04:04 | 33.94928 | -118.39982 | 107 ft | 14 kts | 76° |
| 2026-05-07 04:05 | 33.94945 | -118.39943 | 108 ft | 0 kts | 53° |
| 2026-05-07 04:05 | 33.94958 | -118.39934 | 109 ft | 5 kts | 31° |
| 2026-05-07 04:06 | 33.95006 | -118.39939 | 113 ft | 8 kts | 320° |
| 2026-05-07 04:06 | 33.95031 | -118.40039 | 117 ft | 19 kts | 271° |
| 2026-05-07 04:06 | 33.95011 | -118.40246 | 116 ft | 30 kts | 263° |
| 2026-05-07 04:06 | 33.94982 | -118.40542 | 115 ft | 42 kts | 263° |
| 2026-05-07 04:07 | 33.94927 | -118.41079 | 115 ft | 98 kts | 263° |
| 2026-05-07 04:07 | 33.94818 | -118.42157 | 112 ft | 158 kts | 263° |
| 2026-05-07 04:07 | 33.94666 | -118.43564 | 483 ft | 171 kts | 262° |
| 2026-05-07 04:07 | 33.94512 | -118.44974 | 1324 ft | 170 kts | 264° |
| 2026-05-07 04:08 | 33.94386 | -118.46422 | 1943 ft | 181 kts | 267° |
| 2026-05-07 04:08 | 33.94326 | -118.47966 | 2386 ft | 186 kts | 269° |
| 2026-05-07 04:08 | 33.94279 | -118.49499 | 3102 ft | 189 kts | 268° |
| 2026-05-07 04:08 | 33.94186 | -118.51143 | 3492 ft | 211 kts | 266° |
| 2026-05-07 04:09 | 33.94048 | -118.53025 | 3620 ft | 241 kts | 265° |
| 2026-05-07 04:09 | 33.93888 | -118.55141 | 3760 ft | 266 kts | 265° |
| 2026-05-07 04:09 | 33.93715 | -118.57391 | 4145 ft | 267 kts | 266° |
| 2026-05-07 04:09 | 33.93542 | -118.59618 | 4533 ft | 268 kts | 266° |
| 2026-05-07 04:10 | 33.93368 | -118.61859 | 4926 ft | 269 kts | 266° |
| 2026-05-07 04:10 | 33.93252 | -118.63346 | 5153 ft | 271 kts | 266° |
| 2026-05-07 04:10 | 33.93076 | -118.65614 | 5496 ft | 273 kts | 266° |
| 2026-05-07 04:10 | 33.92899 | -118.67903 | 5823 ft | 276 kts | 266° |
| 2026-05-07 04:11 | 33.92720 | -118.70214 | 6147 ft | 278 kts | 266° |
| 2026-05-07 04:11 | 33.92540 | -118.72544 | 6449 ft | 280 kts | 266° |
| 2026-05-07 04:11 | 33.92359 | -118.74889 | 6755 ft | 282 kts | 266° |
| 2026-05-07 04:11 | 33.92176 | -118.77249 | 7005 ft | 285 kts | 266° |
| 2026-05-07 04:12 | 33.91991 | -118.79637 | 7269 ft | 286 kts | 266° |
| 2026-05-07 04:12 | 33.91809 | -118.82030 | 7516 ft | 288 kts | 268° |
| 2026-05-07 04:12 | 33.91755 | -118.84452 | 7764 ft | 289 kts | 273° |
| 2026-05-07 04:12 | 33.91799 | -118.86880 | 8004 ft | 291 kts | 274° |
| 2026-05-07 04:13 | 33.91868 | -118.89319 | 8258 ft | 292 kts | 274° |
| 2026-05-07 04:13 | 33.91942 | -118.91742 | 8476 ft | 293 kts | 275° |
| 2026-05-07 04:13 | 33.92016 | -118.94203 | 8701 ft | 295 kts | 275° |
| 2026-05-07 04:13 | 33.92091 | -118.96680 | 8929 ft | 297 kts | 275° |
| 2026-05-07 04:14 | 33.92171 | -118.99165 | 9128 ft | 297 kts | 276° |
| 2026-05-07 04:14 | 33.92503 | -119.01607 | 9324 ft | 294 kts | 291° |
| 2026-05-07 04:14 | 33.93340 | -119.03839 | 9504 ft | 292 kts | 302° |
| 2026-05-07 04:14 | 33.94375 | -119.05942 | 9701 ft | 292 kts | 305° |
| 2026-05-07 04:15 | 33.95454 | -119.08018 | 9904 ft | 293 kts | 306° |
| 2026-05-07 04:15 | 33.96539 | -119.10096 | 10079 ft | 294 kts | 306° |
| 2026-05-07 04:15 | 33.97625 | -119.12187 | 10262 ft | 294 kts | 305° |
| 2026-05-07 04:15 | 33.98711 | -119.14287 | 10445 ft | 295 kts | 305° |
| 2026-05-07 04:16 | 33.99799 | -119.16396 | 10670 ft | 299 kts | 306° |
| 2026-05-07 04:16 | 34.01110 | -119.18418 | 10779 ft | 314 kts | 319° |
| 2026-05-07 04:16 | 34.02831 | -119.20177 | 10923 ft | 336 kts | 325° |
| 2026-05-07 04:16 | 34.04788 | -119.21902 | 11096 ft | 358 kts | 327° |
| 2026-05-07 04:17 | 34.06814 | -119.23625 | 11774 ft | 363 kts | 327° |
| 2026-05-07 04:17 | 34.08889 | -119.25389 | 12486 ft | 368 kts | 327° |
| 2026-05-07 04:17 | 34.10995 | -119.27189 | 13180 ft | 372 kts | 327° |
| 2026-05-07 04:17 | 34.13112 | -119.29011 | 13865 ft | 376 kts | 327° |
| 2026-05-07 04:18 | 34.15255 | -119.30863 | 14492 ft | 380 kts | 327° |
| 2026-05-07 04:18 | 34.17413 | -119.32734 | 15102 ft | 383 kts | 327° |
| 2026-05-07 04:18 | 34.19585 | -119.34621 | 15687 ft | 386 kts | 327° |
| 2026-05-07 04:18 | 34.21775 | -119.36527 | 16289 ft | 389 kts | 327° |
| 2026-05-07 04:19 | 34.23980 | -119.38446 | 16889 ft | 392 kts | 327° |
| 2026-05-07 04:19 | 34.26204 | -119.40384 | 17454 ft | 395 kts | 327° |
| 2026-05-07 04:19 | 34.28445 | -119.42338 | 18027 ft | 398 kts | 327° |
| 2026-05-07 04:19 | 34.30697 | -119.44303 | 18546 ft | 401 kts | 327° |
| 2026-05-07 04:20 | 34.32967 | -119.46285 | 19035 ft | 403 kts | 327° |
| 2026-05-07 04:20 | 34.35241 | -119.48272 | 19487 ft | 405 kts | 327° |
| 2026-05-07 04:20 | 34.37534 | -119.50277 | 19956 ft | 407 kts | 327° |
| 2026-05-07 04:21 | 34.42094 | -119.54344 | 20816 ft | 414 kts | 322° |
| 2026-05-07 04:21 | 34.44183 | -119.56775 | 21287 ft | 419 kts | 316° |
| 2026-05-07 04:21 | 34.46126 | -119.59427 | 21751 ft | 423 kts | 314° |
| 2026-05-07 04:21 | 34.48017 | -119.62171 | 22223 ft | 427 kts | 313° |
| 2026-05-07 04:22 | 34.49910 | -119.64954 | 22763 ft | 429 kts | 313° |
| 2026-05-07 04:22 | 34.51818 | -119.67745 | 23250 ft | 431 kts | 314° |
| 2026-05-07 04:22 | 34.53752 | -119.70550 | 23708 ft | 435 kts | 314° |
| 2026-05-07 04:22 | 34.55711 | -119.73369 | 24120 ft | 437 kts | 314° |
| 2026-05-07 04:23 | 34.57675 | -119.76187 | 24546 ft | 439 kts | 314° |
| 2026-05-07 04:23 | 34.59659 | -119.79027 | 24966 ft | 442 kts | 314° |
| 2026-05-07 04:23 | 34.61655 | -119.81882 | 25399 ft | 444 kts | 314° |
| 2026-05-07 04:23 | 34.63662 | -119.84755 | 25859 ft | 447 kts | 314° |
| 2026-05-07 04:24 | 34.65651 | -119.87604 | 26290 ft | 450 kts | 314° |
| 2026-05-07 04:24 | 34.67685 | -119.90521 | 26678 ft | 453 kts | 314° |
| 2026-05-07 04:24 | 34.69724 | -119.93448 | 27104 ft | 455 kts | 314° |
| 2026-05-07 04:24 | 34.71774 | -119.96394 | 27521 ft | 457 kts | 314° |
| 2026-05-07 04:25 | 34.73838 | -119.99362 | 27915 ft | 460 kts | 314° |
| 2026-05-07 04:25 | 34.75914 | -120.02352 | 28305 ft | 463 kts | 315° |
| 2026-05-07 04:25 | 34.77996 | -120.05351 | 28718 ft | 465 kts | 315° |
| 2026-05-07 04:25 | 34.80095 | -120.08377 | 29097 ft | 468 kts | 314° |
| 2026-05-07 04:26 | 34.82202 | -120.11417 | 29470 ft | 471 kts | 315° |
| 2026-05-07 04:26 | 34.84320 | -120.14476 | 29859 ft | 473 kts | 315° |
| 2026-05-07 04:26 | 34.86440 | -120.17543 | 30297 ft | 473 kts | 314° |
| 2026-05-07 04:26 | 34.88557 | -120.20608 | 30734 ft | 472 kts | 314° |
| 2026-05-07 04:27 | 34.90673 | -120.23677 | 31165 ft | 471 kts | 315° |
| 2026-05-07 04:27 | 34.92780 | -120.26732 | 31577 ft | 470 kts | 315° |
| 2026-05-07 04:27 | 34.94857 | -120.29747 | 31960 ft | 470 kts | 314° |
| 2026-05-07 04:27 | 34.96952 | -120.32795 | 32344 ft | 469 kts | 314° |
| 2026-05-07 04:28 | 34.99042 | -120.35853 | 32724 ft | 468 kts | 314° |
| 2026-05-07 04:28 | 35.01123 | -120.38900 | 33087 ft | 467 kts | 314° |
| 2026-05-07 04:28 | 35.03199 | -120.41935 | 33440 ft | 465 kts | 314° |
| 2026-05-07 04:28 | 35.05275 | -120.44968 | 33754 ft | 465 kts | 315° |
| 2026-05-07 04:29 | 35.07347 | -120.47994 | 34043 ft | 465 kts | 315° |
| 2026-05-07 04:29 | 35.09429 | -120.51031 | 34130 ft | 466 kts | 315° |
| 2026-05-07 04:29 | 35.13602 | -120.57127 | 34133 ft | 468 kts | 314° |
| 2026-05-07 04:30 | 35.17775 | -120.63238 | 34146 ft | 468 kts | 314° |
| 2026-05-07 04:30 | 35.21939 | -120.69347 | 34138 ft | 468 kts | 314° |
| 2026-05-07 04:31 | 35.26106 | -120.75470 | 34149 ft | 468 kts | 314° |
| 2026-05-07 04:31 | 35.30237 | -120.81550 | 34142 ft | 468 kts | 314° |
| 2026-05-07 04:32 | 35.34396 | -120.87683 | 34132 ft | 468 kts | 314° |
| 2026-05-07 04:32 | 35.38546 | -120.93813 | 34128 ft | 468 kts | 314° |
| 2026-05-07 04:33 | 35.42632 | -120.99860 | 34128 ft | 467 kts | 314° |
| 2026-05-07 04:33 | 35.46697 | -121.05887 | 34119 ft | 467 kts | 314° |
| 2026-05-07 04:34 | 35.50857 | -121.12004 | 34121 ft | 466 kts | 315° |
| 2026-05-07 04:34 | 35.55048 | -121.18080 | 34120 ft | 466 kts | 315° |
| 2026-05-07 04:35 | 35.59253 | -121.24155 | 34123 ft | 467 kts | 315° |
| 2026-05-07 04:35 | 35.63451 | -121.30231 | 34125 ft | 467 kts | 315° |
| 2026-05-07 04:36 | 35.67648 | -121.36321 | 34121 ft | 466 kts | 315° |
| 2026-05-07 04:36 | 35.71813 | -121.42376 | 34124 ft | 466 kts | 315° |
| 2026-05-07 04:37 | 35.76004 | -121.48478 | 34128 ft | 466 kts | 315° |
| 2026-05-07 04:37 | 35.80188 | -121.54583 | 34127 ft | 466 kts | 315° |
| 2026-05-07 04:38 | 35.84372 | -121.60698 | 34140 ft | 466 kts | 315° |
| 2026-05-07 04:38 | 35.88547 | -121.66811 | 34137 ft | 466 kts | 315° |
| 2026-05-07 04:39 | 35.92731 | -121.72948 | 34133 ft | 466 kts | 315° |
| 2026-05-07 04:39 | 35.96906 | -121.79081 | 34134 ft | 466 kts | 315° |
| 2026-05-07 04:40 | 36.01639 | -121.84374 | 34149 ft | 454 kts | 333° |
| 2026-05-07 04:40 | 36.07214 | -121.87930 | 34150 ft | 451 kts | 339° |
| 2026-05-07 04:41 | 36.12854 | -121.91206 | 34152 ft | 451 kts | 338° |
| 2026-05-07 04:41 | 36.18492 | -121.94646 | 34155 ft | 452 kts | 337° |
| 2026-05-07 04:42 | 36.24103 | -121.98174 | 34156 ft | 452 kts | 337° |
| 2026-05-07 04:42 | 36.29619 | -122.01670 | 34163 ft | 452 kts | 337° |
| 2026-05-07 04:43 | 36.35115 | -122.05157 | 34173 ft | 452 kts | 337° |
| 2026-05-07 04:43 | 36.40682 | -122.08691 | 34165 ft | 452 kts | 337° |
| 2026-05-07 04:44 | 36.46291 | -122.12257 | 34174 ft | 452 kts | 337° |
| 2026-05-07 04:44 | 36.51892 | -122.15824 | 34169 ft | 452 kts | 337° |
| 2026-05-07 04:45 | 36.57490 | -122.19396 | 34164 ft | 452 kts | 337° |
| 2026-05-07 04:45 | 36.63097 | -122.22978 | 34171 ft | 453 kts | 337° |
| 2026-05-07 04:46 | 36.68705 | -122.26566 | 34173 ft | 453 kts | 337° |
| 2026-05-07 04:46 | 36.74312 | -122.30161 | 34163 ft | 453 kts | 336° |
| 2026-05-07 04:47 | 36.79871 | -122.33749 | 34163 ft | 453 kts | 336° |
| 2026-05-07 04:47 | 36.85269 | -122.37232 | 34168 ft | 453 kts | 336° |
| 2026-05-07 04:48 | 36.90868 | -122.40842 | 34167 ft | 453 kts | 336° |
| 2026-05-07 04:48 | 36.96473 | -122.44458 | 34165 ft | 453 kts | 336° |
| 2026-05-07 04:49 | 37.02073 | -122.48077 | 34163 ft | 453 kts | 336° |
| 2026-05-07 04:49 | 37.07644 | -122.51684 | 34177 ft | 453 kts | 336° |
| 2026-05-07 04:50 | 37.13240 | -122.55313 | 34161 ft | 453 kts | 336° |
| 2026-05-07 04:50 | 37.18830 | -122.58944 | 34174 ft | 453 kts | 336° |
| 2026-05-07 04:51 | 37.24420 | -122.62582 | 34169 ft | 452 kts | 336° |
| 2026-05-07 04:51 | 37.30120 | -122.65900 | 34183 ft | 450 kts | 341° |
| 2026-05-07 04:52 | 37.35931 | -122.68812 | 34181 ft | 449 kts | 342° |
| 2026-05-07 04:52 | 37.41712 | -122.71668 | 34195 ft | 449 kts | 342° |
| 2026-05-07 04:53 | 37.47521 | -122.74574 | 34187 ft | 449 kts | 342° |
| 2026-05-07 04:53 | 37.53326 | -122.77500 | 34184 ft | 449 kts | 342° |
| 2026-05-07 04:54 | 37.59127 | -122.80433 | 34175 ft | 449 kts | 342° |
| 2026-05-07 04:54 | 37.64940 | -122.83376 | 34183 ft | 449 kts | 341° |
| 2026-05-07 04:55 | 37.70696 | -122.86296 | 34171 ft | 449 kts | 341° |
| 2026-05-07 04:55 | 37.76490 | -122.89239 | 34167 ft | 449 kts | 341° |
| 2026-05-07 04:56 | 37.82286 | -122.92188 | 34169 ft | 449 kts | 341° |
| 2026-05-07 04:56 | 37.88086 | -122.95145 | 34167 ft | 449 kts | 341° |
| 2026-05-07 04:57 | 37.93873 | -122.98100 | 34173 ft | 449 kts | 341° |
| 2026-05-07 04:57 | 37.99661 | -123.01060 | 34167 ft | 449 kts | 341° |
| 2026-05-07 04:58 | 38.05460 | -123.04036 | 34166 ft | 449 kts | 341° |
| 2026-05-07 04:58 | 38.10268 | -123.06516 | 34157 ft | 449 kts | 341° |
| 2026-05-07 04:59 | 38.16995 | -123.09983 | 34148 ft | 449 kts | 341° |
| 2026-05-07 04:59 | 38.21844 | -123.12481 | 34147 ft | 449 kts | 341° |
| 2026-05-07 05:00 | 38.27441 | -123.16082 | 34139 ft | 453 kts | 332° |
| 2026-05-07 05:00 | 38.32741 | -123.20376 | 34131 ft | 454 kts | 330° |
| 2026-05-07 05:01 | 38.38051 | -123.24762 | 34138 ft | 454 kts | 331° |
| 2026-05-07 05:01 | 38.43382 | -123.29102 | 34144 ft | 454 kts | 331° |
| 2026-05-07 05:02 | 38.48724 | -123.33421 | 34140 ft | 454 kts | 331° |
| 2026-05-07 05:02 | 38.54066 | -123.37742 | 34138 ft | 455 kts | 331° |
| 2026-05-07 05:03 | 38.59409 | -123.42072 | 34143 ft | 454 kts | 331° |
| 2026-05-07 05:03 | 38.64722 | -123.46387 | 34145 ft | 455 kts | 331° |
| 2026-05-07 05:04 | 38.70063 | -123.50733 | 34151 ft | 455 kts | 331° |
| 2026-05-07 05:04 | 38.75398 | -123.55082 | 34154 ft | 455 kts | 330° |
| 2026-05-07 05:05 | 38.80739 | -123.59443 | 34154 ft | 455 kts | 330° |
| 2026-05-07 05:05 | 38.86079 | -123.63812 | 34160 ft | 455 kts | 330° |
| 2026-05-07 05:06 | 38.91413 | -123.68184 | 34163 ft | 455 kts | 330° |
| 2026-05-07 05:06 | 38.96742 | -123.72577 | 34170 ft | 455 kts | 329° |
| 2026-05-07 05:07 | 39.01503 | -123.77887 | 34175 ft | 463 kts | 311° |
| 2026-05-07 05:07 | 39.04727 | -123.85176 | 34182 ft | 471 kts | 297° |
| 2026-05-07 05:08 | 39.07319 | -123.92872 | 34193 ft | 471 kts | 297° |
| 2026-05-07 05:08 | 39.10032 | -124.00557 | 34176 ft | 470 kts | 298° |
| 2026-05-07 05:09 | 39.12845 | -124.08152 | 34175 ft | 470 kts | 299° |
| 2026-05-07 05:09 | 39.15686 | -124.15736 | 34187 ft | 470 kts | 299° |
| 2026-05-07 05:10 | 39.18503 | -124.23275 | 34188 ft | 470 kts | 299° |
| 2026-05-07 05:10 | 39.21329 | -124.30869 | 34185 ft | 470 kts | 299° |
| 2026-05-07 05:11 | 39.24149 | -124.38471 | 34185 ft | 470 kts | 298° |
| 2026-05-07 05:11 | 39.26964 | -124.46081 | 34192 ft | 470 kts | 298° |
| 2026-05-07 05:12 | 39.29776 | -124.53701 | 34194 ft | 470 kts | 298° |
| 2026-05-07 05:12 | 39.32579 | -124.61317 | 34199 ft | 470 kts | 298° |
| 2026-05-07 05:13 | 39.35381 | -124.68949 | 34202 ft | 470 kts | 298° |
| 2026-05-07 05:13 | 39.38171 | -124.76580 | 34205 ft | 470 kts | 298° |
| 2026-05-07 05:14 | 39.40934 | -124.84233 | 34207 ft | 470 kts | 298° |
| 2026-05-07 05:14 | 39.43692 | -124.91852 | 34208 ft | 470 kts | 298° |
| 2026-05-07 05:15 | 39.46469 | -124.99507 | 34212 ft | 470 kts | 298° |
| 2026-05-07 05:15 | 39.49249 | -125.07175 | 34210 ft | 470 kts | 298° |
| 2026-05-07 05:16 | 39.52022 | -125.14845 | 34214 ft | 470 kts | 297° |
| 2026-05-07 05:16 | 39.54790 | -125.22524 | 34218 ft | 470 kts | 297° |
| 2026-05-07 05:17 | 39.57553 | -125.30210 | 34220 ft | 470 kts | 297° |
| 2026-05-07 05:17 | 39.60294 | -125.37853 | 34220 ft | 470 kts | 297° |
| 2026-05-07 05:18 | 39.63048 | -125.45552 | 34221 ft | 470 kts | 297° |
| 2026-05-07 05:18 | 39.65797 | -125.53259 | 34229 ft | 471 kts | 297° |
| 2026-05-07 05:19 | 39.68544 | -125.60981 | 34224 ft | 471 kts | 297° |
| 2026-05-07 05:19 | 39.71283 | -125.68701 | 34230 ft | 471 kts | 297° |
| 2026-05-07 05:20 | 39.74007 | -125.76433 | 34232 ft | 471 kts | 296° |
| 2026-05-07 05:20 | 39.76713 | -125.84192 | 34231 ft | 471 kts | 296° |
| 2026-05-07 05:21 | 39.80786 | -125.95813 | 34238 ft | 471 kts | 296° |
| 2026-05-07 05:22 | 39.83487 | -126.03517 | 34233 ft | 471 kts | 296° |
| 2026-05-07 05:22 | 39.86205 | -126.11287 | 34241 ft | 471 kts | 296° |
| 2026-05-07 05:23 | 39.88914 | -126.19055 | 34240 ft | 471 kts | 296° |
| 2026-05-07 05:23 | 39.91619 | -126.26836 | 34238 ft | 471 kts | 296° |
| 2026-05-07 05:24 | 39.94300 | -126.34566 | 34244 ft | 471 kts | 296° |
| 2026-05-07 05:24 | 39.96998 | -126.42367 | 34247 ft | 472 kts | 296° |
| 2026-05-07 05:25 | 40.00331 | -126.49679 | 34247 ft | 469 kts | 308° |
| 2026-05-07 05:25 | 40.04374 | -126.56364 | 34250 ft | 468 kts | 310° |
| 2026-05-07 05:26 | 40.08473 | -126.62987 | 34248 ft | 469 kts | 310° |
| 2026-05-07 05:26 | 40.12520 | -126.69682 | 34252 ft | 469 kts | 309° |
| 2026-05-07 05:27 | 40.16510 | -126.76368 | 34254 ft | 469 kts | 309° |
| 2026-05-07 05:27 | 40.20517 | -126.83113 | 34258 ft | 469 kts | 309° |
| 2026-05-07 05:28 | 40.24520 | -126.89861 | 34265 ft | 470 kts | 309° |
| 2026-05-07 05:28 | 40.28523 | -126.96621 | 34265 ft | 470 kts | 309° |
| 2026-05-07 05:29 | 40.32526 | -127.03394 | 34262 ft | 470 kts | 309° |
| 2026-05-07 05:29 | 40.36535 | -127.10193 | 34265 ft | 470 kts | 309° |
| 2026-05-07 05:30 | 40.40535 | -127.16992 | 34265 ft | 471 kts | 309° |
| 2026-05-07 05:30 | 40.44533 | -127.23803 | 34264 ft | 471 kts | 309° |
| 2026-05-07 05:31 | 40.48546 | -127.30653 | 34257 ft | 476 kts | 308° |
| 2026-05-07 05:31 | 40.52550 | -127.37558 | 34270 ft | 479 kts | 308° |
| 2026-05-07 05:32 | 40.56592 | -127.44530 | 34270 ft | 480 kts | 308° |
| 2026-05-07 05:32 | 40.60654 | -127.51519 | 34270 ft | 481 kts | 308° |
| 2026-05-07 05:33 | 40.64721 | -127.58525 | 34273 ft | 481 kts | 308° |
| 2026-05-07 05:33 | 40.68788 | -127.65544 | 34276 ft | 481 kts | 308° |
| 2026-05-07 05:34 | 40.72829 | -127.72536 | 34276 ft | 482 kts | 308° |
| 2026-05-07 05:34 | 40.76889 | -127.79577 | 34282 ft | 482 kts | 308° |
| 2026-05-07 05:35 | 40.80948 | -127.86633 | 34283 ft | 482 kts | 308° |
| 2026-05-07 05:35 | 40.85001 | -127.93695 | 34283 ft | 483 kts | 308° |
| 2026-05-07 05:36 | 40.89053 | -128.00770 | 34285 ft | 483 kts | 308° |
| 2026-05-07 05:36 | 40.93104 | -128.07860 | 34282 ft | 483 kts | 308° |
| 2026-05-07 05:37 | 40.97127 | -128.14918 | 34284 ft | 483 kts | 308° |
| 2026-05-07 05:37 | 41.01158 | -128.22034 | 34288 ft | 483 kts | 308° |
| 2026-05-07 05:38 | 41.05174 | -128.29169 | 34289 ft | 483 kts | 308° |
| 2026-05-07 05:38 | 41.09197 | -128.36296 | 34290 ft | 483 kts | 308° |
| 2026-05-07 05:39 | 41.13223 | -128.43426 | 34291 ft | 483 kts | 308° |
| 2026-05-07 05:39 | 41.17250 | -128.50569 | 34296 ft | 482 kts | 308° |
| 2026-05-07 05:40 | 41.21236 | -128.57660 | 34295 ft | 482 kts | 308° |
| 2026-05-07 05:40 | 41.25252 | -128.64820 | 34296 ft | 482 kts | 308° |
| 2026-05-07 05:41 | 41.29252 | -128.71969 | 34300 ft | 482 kts | 308° |
| 2026-05-07 05:41 | 41.33243 | -128.79117 | 34300 ft | 481 kts | 308° |
| 2026-05-07 05:42 | 41.37205 | -128.86231 | 34302 ft | 481 kts | 308° |
| 2026-05-07 05:42 | 41.41183 | -128.93390 | 34303 ft | 480 kts | 308° |
| 2026-05-07 05:43 | 41.45145 | -129.00537 | 34306 ft | 479 kts | 307° |
| 2026-05-07 05:43 | 41.49097 | -129.07687 | 34308 ft | 478 kts | 307° |
| 2026-05-07 05:44 | 41.53014 | -129.14850 | 34310 ft | 477 kts | 307° |
| 2026-05-07 05:44 | 41.56920 | -129.21983 | 34312 ft | 475 kts | 307° |
| 2026-05-07 05:45 | 41.60830 | -129.29110 | 34314 ft | 475 kts | 307° |
| 2026-05-07 05:45 | 41.64702 | -129.36175 | 34319 ft | 473 kts | 306° |
| 2026-05-07 05:46 | 41.68583 | -129.43274 | 34312 ft | 472 kts | 306° |
| 2026-05-07 05:46 | 41.72461 | -129.50385 | 34317 ft | 472 kts | 306° |
| 2026-05-07 05:47 | 41.76324 | -129.57485 | 34321 ft | 472 kts | 306° |
| 2026-05-07 05:47 | 41.80186 | -129.64600 | 34322 ft | 472 kts | 306° |
| 2026-05-07 05:48 | 41.84042 | -129.71721 | 34323 ft | 471 kts | 306° |
| 2026-05-07 05:48 | 41.87889 | -129.78840 | 34326 ft | 471 kts | 306° |
| 2026-05-07 05:49 | 41.91731 | -129.85968 | 34326 ft | 471 kts | 306° |
| 2026-05-07 05:49 | 41.95770 | -129.92819 | 34327 ft | 471 kts | 315° |
| 2026-05-07 05:50 | 42.00817 | -129.98445 | 34332 ft | 472 kts | 323° |
| 2026-05-07 05:50 | 42.05212 | -130.02802 | 34330 ft | 473 kts | 323° |
| 2026-05-07 05:51 | 42.10480 | -130.08110 | 34332 ft | 473 kts | 322° |
| 2026-05-07 05:51 | 42.15707 | -130.13512 | 34332 ft | 473 kts | 321° |
| 2026-05-07 05:52 | 42.20922 | -130.18957 | 34334 ft | 474 kts | 321° |
| 2026-05-07 05:52 | 42.26131 | -130.24410 | 34336 ft | 474 kts | 321° |
| 2026-05-07 05:53 | 42.31303 | -130.29831 | 34336 ft | 474 kts | 321° |
| 2026-05-07 05:53 | 42.36510 | -130.35298 | 34342 ft | 474 kts | 321° |
| 2026-05-07 05:54 | 42.41716 | -130.40777 | 34343 ft | 474 kts | 321° |
| 2026-05-07 05:54 | 42.46917 | -130.46262 | 34342 ft | 474 kts | 321° |
| 2026-05-07 05:55 | 42.52115 | -130.51755 | 34340 ft | 474 kts | 321° |
| 2026-05-07 05:55 | 42.57313 | -130.57261 | 34349 ft | 474 kts | 321° |
| 2026-05-07 05:56 | 42.62500 | -130.62781 | 34350 ft | 473 kts | 320° |
| 2026-05-07 05:56 | 42.67680 | -130.68329 | 34348 ft | 474 kts | 320° |
| 2026-05-07 05:57 | 42.72833 | -130.73838 | 34347 ft | 473 kts | 320° |
| 2026-05-07 05:57 | 42.78015 | -130.79376 | 34351 ft | 473 kts | 320° |
| 2026-05-07 05:58 | 42.83187 | -130.84914 | 34350 ft | 473 kts | 320° |
| 2026-05-07 05:58 | 42.88359 | -130.90464 | 34350 ft | 473 kts | 320° |
| 2026-05-07 05:59 | 42.93531 | -130.96026 | 34354 ft | 473 kts | 320° |
| 2026-05-07 05:59 | 42.98696 | -131.01594 | 34354 ft | 473 kts | 320° |
| 2026-05-07 06:00 | 43.03855 | -131.07166 | 34356 ft | 473 kts | 320° |
| 2026-05-07 06:00 | 43.08981 | -131.12716 | 34359 ft | 473 kts | 320° |
| 2026-05-07 06:01 | 43.14141 | -131.18315 | 34354 ft | 472 kts | 319° |
| 2026-05-07 06:01 | 43.19289 | -131.23913 | 34360 ft | 472 kts | 319° |
| 2026-05-07 06:02 | 43.24432 | -131.29519 | 34361 ft | 472 kts | 319° |
| 2026-05-07 06:02 | 43.29563 | -131.35153 | 34361 ft | 472 kts | 319° |
| 2026-05-07 06:03 | 43.34652 | -131.40756 | 34362 ft | 471 kts | 319° |
| 2026-05-07 06:03 | 43.39774 | -131.46385 | 34360 ft | 471 kts | 319° |
| 2026-05-07 06:04 | 43.44893 | -131.52014 | 34361 ft | 471 kts | 319° |
| 2026-05-07 06:04 | 43.50006 | -131.57649 | 34360 ft | 470 kts | 319° |
| 2026-05-07 06:05 | 43.55108 | -131.63284 | 34363 ft | 470 kts | 319° |
| 2026-05-07 06:05 | 43.60213 | -131.68935 | 34359 ft | 470 kts | 319° |
| 2026-05-07 06:06 | 43.65276 | -131.74552 | 34363 ft | 469 kts | 319° |
| 2026-05-07 06:06 | 43.70370 | -131.80216 | 34362 ft | 469 kts | 319° |
| 2026-05-07 06:07 | 43.75454 | -131.85883 | 34365 ft | 469 kts | 318° |
| 2026-05-07 06:07 | 43.80537 | -131.91561 | 34365 ft | 469 kts | 318° |
| 2026-05-07 06:08 | 43.85613 | -131.97244 | 34366 ft | 469 kts | 318° |
| 2026-05-07 06:08 | 43.90654 | -132.02902 | 34361 ft | 468 kts | 318° |
| 2026-05-07 06:09 | 43.95704 | -132.08621 | 34367 ft | 468 kts | 318° |
| 2026-05-07 06:09 | 44.00746 | -132.14332 | 34365 ft | 467 kts | 318° |
| 2026-05-07 06:10 | 44.05790 | -132.20036 | 34364 ft | 467 kts | 318° |
| 2026-05-07 06:10 | 44.10823 | -132.25734 | 34367 ft | 466 kts | 318° |
| 2026-05-07 06:11 | 44.15852 | -132.31440 | 34366 ft | 465 kts | 318° |
| 2026-05-07 06:11 | 44.20839 | -132.37112 | 34373 ft | 465 kts | 317° |
| 2026-05-07 06:12 | 44.25841 | -132.42814 | 34361 ft | 464 kts | 317° |
| 2026-05-07 06:12 | 44.30833 | -132.48518 | 34372 ft | 464 kts | 317° |
| 2026-05-07 06:13 | 44.35820 | -132.54228 | 34368 ft | 463 kts | 317° |
| 2026-05-07 06:13 | 44.40800 | -132.59945 | 34371 ft | 463 kts | 317° |
| 2026-05-07 06:14 | 44.45741 | -132.65629 | 34370 ft | 462 kts | 317° |
| 2026-05-07 06:14 | 44.50703 | -132.71350 | 34369 ft | 462 kts | 317° |
| 2026-05-07 06:15 | 44.55663 | -132.77088 | 34365 ft | 461 kts | 317° |
| 2026-05-07 06:15 | 44.60593 | -132.82842 | 34371 ft | 461 kts | 317° |
| 2026-05-07 06:16 | 44.65533 | -132.88602 | 34370 ft | 461 kts | 317° |
| 2026-05-07 06:16 | 44.70473 | -132.94356 | 34372 ft | 461 kts | 317° |
| 2026-05-07 06:17 | 44.75411 | -133.00114 | 34371 ft | 461 kts | 316° |
| 2026-05-07 06:17 | 44.80324 | -133.05857 | 34372 ft | 462 kts | 316° |
| 2026-05-07 06:18 | 44.85260 | -133.11639 | 34372 ft | 462 kts | 316° |
| 2026-05-07 06:18 | 44.90207 | -133.17449 | 34371 ft | 462 kts | 316° |
| 2026-05-07 06:19 | 44.95148 | -133.23265 | 34373 ft | 462 kts | 316° |
| 2026-05-07 06:19 | 45.00085 | -133.29090 | 34371 ft | 463 kts | 316° |
| 2026-05-07 06:20 | 45.05024 | -133.34930 | 34371 ft | 463 kts | 316° |
| 2026-05-07 06:20 | 45.09961 | -133.40783 | 34374 ft | 463 kts | 316° |
| 2026-05-07 06:21 | 45.14900 | -133.46651 | 34375 ft | 463 kts | 316° |
| 2026-05-07 06:21 | 45.19840 | -133.52541 | 34377 ft | 464 kts | 315° |
| 2026-05-07 06:22 | 45.24760 | -133.58461 | 34380 ft | 464 kts | 315° |
| 2026-05-07 06:22 | 45.32150 | -133.67337 | 34378 ft | 464 kts | 315° |
| 2026-05-07 06:23 | 45.37077 | -133.73253 | 34375 ft | 464 kts | 315° |
| 2026-05-07 06:23 | 45.41981 | -133.79155 | 34376 ft | 464 kts | 315° |
| 2026-05-07 06:24 | 45.46912 | -133.85103 | 34381 ft | 464 kts | 315° |
| 2026-05-07 06:24 | 45.51841 | -133.91064 | 34378 ft | 464 kts | 315° |
| 2026-05-07 06:25 | 45.56772 | -133.97041 | 34376 ft | 464 kts | 315° |
| 2026-05-07 06:25 | 45.61662 | -134.02983 | 34380 ft | 464 kts | 315° |
| 2026-05-07 06:26 | 45.66582 | -134.08976 | 34378 ft | 464 kts | 315° |
| 2026-05-07 06:26 | 45.71498 | -134.14978 | 34381 ft | 465 kts | 314° |
| 2026-05-07 06:27 | 45.76415 | -134.20996 | 34380 ft | 465 kts | 314° |
| 2026-05-07 06:27 | 45.81337 | -134.27034 | 34377 ft | 465 kts | 314° |
| 2026-05-07 06:28 | 45.86240 | -134.33102 | 34380 ft | 465 kts | 314° |
| 2026-05-07 06:28 | 45.91141 | -134.39182 | 34381 ft | 465 kts | 314° |
| 2026-05-07 06:29 | 45.96049 | -134.45259 | 34387 ft | 466 kts | 314° |
| 2026-05-07 06:29 | 46.00925 | -134.51300 | 34385 ft | 466 kts | 314° |
| 2026-05-07 06:30 | 46.05832 | -134.57391 | 34383 ft | 466 kts | 314° |
| 2026-05-07 06:30 | 46.10735 | -134.63494 | 34376 ft | 466 kts | 314° |
| 2026-05-07 06:31 | 46.15636 | -134.69610 | 34380 ft | 465 kts | 314° |
| 2026-05-07 06:31 | 46.20535 | -134.75738 | 34383 ft | 465 kts | 313° |
| 2026-05-07 06:32 | 46.25401 | -134.81840 | 34378 ft | 466 kts | 313° |
| 2026-05-07 06:32 | 46.30294 | -134.87992 | 34379 ft | 466 kts | 313° |
| 2026-05-07 06:33 | 46.35190 | -134.94162 | 34376 ft | 467 kts | 313° |
| 2026-05-07 06:33 | 46.40097 | -135.00360 | 34382 ft | 467 kts | 313° |
| 2026-05-07 06:34 | 46.44971 | -135.06535 | 34384 ft | 468 kts | 313° |
| 2026-05-07 06:34 | 46.49862 | -135.12791 | 34378 ft | 468 kts | 313° |
| 2026-05-07 06:35 | 46.54754 | -135.19054 | 34378 ft | 469 kts | 313° |
| 2026-05-07 06:35 | 46.59664 | -135.25328 | 34377 ft | 470 kts | 313° |
| 2026-05-07 06:36 | 46.64582 | -135.31618 | 34381 ft | 470 kts | 313° |
| 2026-05-07 06:36 | 46.69499 | -135.37922 | 34379 ft | 471 kts | 313° |
| 2026-05-07 06:37 | 46.74380 | -135.44197 | 34381 ft | 471 kts | 313° |
| 2026-05-07 06:37 | 46.79304 | -135.50542 | 34380 ft | 471 kts | 313° |
| 2026-05-07 06:38 | 46.84218 | -135.56892 | 34376 ft | 472 kts | 313° |
| 2026-05-07 06:38 | 46.89128 | -135.63252 | 34382 ft | 472 kts | 313° |
| 2026-05-07 06:39 | 46.94043 | -135.69637 | 34370 ft | 472 kts | 313° |
| 2026-05-07 06:39 | 46.98951 | -135.76028 | 34382 ft | 472 kts | 313° |
| 2026-05-07 06:40 | 47.03035 | -135.81357 | 34369 ft | 472 kts | 312° |
| 2026-05-07 06:40 | 47.08734 | -135.88825 | 34376 ft | 472 kts | 312° |
| 2026-05-07 06:41 | 47.12799 | -135.94204 | 34379 ft | 472 kts | 311° |
| 2026-05-07 06:41 | 47.17683 | -136.00661 | 34373 ft | 473 kts | 311° |
| 2026-05-07 06:42 | 47.22579 | -136.07123 | 34368 ft | 472 kts | 311° |
| 2026-05-07 06:42 | 47.27462 | -136.13575 | 34372 ft | 472 kts | 311° |
| 2026-05-07 06:43 | 47.32341 | -136.20040 | 34367 ft | 471 kts | 311° |
| 2026-05-07 06:43 | 47.37221 | -136.26523 | 34372 ft | 471 kts | 311° |
| 2026-05-07 06:44 | 47.42072 | -136.32985 | 34368 ft | 470 kts | 311° |
| 2026-05-07 06:44 | 47.46921 | -136.39461 | 34367 ft | 469 kts | 311° |
| 2026-05-07 06:45 | 47.51725 | -136.45894 | 34367 ft | 468 kts | 311° |
| 2026-05-07 06:45 | 47.56545 | -136.52365 | 34367 ft | 467 kts | 311° |
| 2026-05-07 06:46 | 47.61360 | -136.58847 | 34367 ft | 467 kts | 311° |
| 2026-05-07 06:46 | 47.66164 | -136.65331 | 34364 ft | 467 kts | 311° |
| 2026-05-07 06:47 | 47.70961 | -136.71838 | 34369 ft | 467 kts | 311° |
| 2026-05-07 06:47 | 47.75706 | -136.78333 | 34364 ft | 466 kts | 311° |
| 2026-05-07 06:48 | 47.80486 | -136.84860 | 34360 ft | 466 kts | 311° |
| 2026-05-07 06:48 | 47.85267 | -136.91384 | 34361 ft | 466 kts | 311° |
| 2026-05-07 06:49 | 47.90048 | -136.97920 | 34362 ft | 466 kts | 311° |
| 2026-05-07 06:49 | 47.94823 | -137.04464 | 34360 ft | 466 kts | 311° |
| 2026-05-07 06:50 | 47.99599 | -137.11029 | 34357 ft | 466 kts | 311° |
| 2026-05-07 06:50 | 48.04365 | -137.17597 | 34359 ft | 466 kts | 311° |
| 2026-05-07 06:51 | 48.09132 | -137.24184 | 34356 ft | 466 kts | 311° |
| 2026-05-07 06:51 | 48.13897 | -137.30786 | 34356 ft | 466 kts | 311° |
| 2026-05-07 06:52 | 48.18626 | -137.37354 | 34354 ft | 466 kts | 311° |
| 2026-05-07 06:52 | 48.23374 | -137.43965 | 34356 ft | 465 kts | 310° |
| 2026-05-07 06:53 | 48.28110 | -137.50578 | 34355 ft | 464 kts | 310° |
| 2026-05-07 06:53 | 48.32817 | -137.57196 | 34354 ft | 462 kts | 310° |
| 2026-05-07 06:54 | 48.37489 | -137.63812 | 34351 ft | 461 kts | 310° |
| 2026-05-07 06:54 | 48.42165 | -137.70417 | 34352 ft | 460 kts | 310° |
| 2026-05-07 06:55 | 48.46812 | -137.76978 | 34351 ft | 460 kts | 310° |
| 2026-05-07 06:55 | 48.51473 | -137.83573 | 34348 ft | 459 kts | 310° |
| 2026-05-07 06:56 | 48.56128 | -137.90177 | 34347 ft | 459 kts | 310° |
| 2026-05-07 06:56 | 48.60778 | -137.96792 | 34344 ft | 459 kts | 310° |
| 2026-05-07 06:57 | 48.65420 | -138.03414 | 34342 ft | 459 kts | 310° |
| 2026-05-07 06:57 | 48.70037 | -138.10017 | 34348 ft | 459 kts | 310° |
| 2026-05-07 06:58 | 48.74677 | -138.16671 | 34340 ft | 459 kts | 310° |
| 2026-05-07 06:58 | 48.79318 | -138.23344 | 34344 ft | 460 kts | 310° |
| 2026-05-07 06:59 | 48.83958 | -138.30034 | 34337 ft | 460 kts | 310° |
| 2026-05-07 06:59 | 48.88593 | -138.36733 | 34339 ft | 460 kts | 310° |
| 2026-05-07 07:00 | 48.93216 | -138.43462 | 34338 ft | 460 kts | 309° |
| 2026-05-07 07:00 | 48.97819 | -138.50213 | 34335 ft | 460 kts | 309° |
| 2026-05-07 07:01 | 49.02434 | -138.56962 | 34338 ft | 459 kts | 309° |
| 2026-05-07 07:01 | 49.07029 | -138.63679 | 34336 ft | 459 kts | 309° |
| 2026-05-07 07:02 | 49.11640 | -138.70434 | 34332 ft | 459 kts | 309° |
| 2026-05-07 07:02 | 49.16241 | -138.77193 | 34339 ft | 459 kts | 309° |
| 2026-05-07 07:03 | 49.20843 | -138.83972 | 34332 ft | 459 kts | 309° |
| 2026-05-07 07:03 | 49.25430 | -138.90749 | 34332 ft | 458 kts | 309° |
| 2026-05-07 07:04 | 49.30012 | -138.97536 | 34334 ft | 458 kts | 309° |
| 2026-05-07 07:04 | 49.34593 | -139.04339 | 34334 ft | 458 kts | 308° |
| 2026-05-07 07:05 | 49.39133 | -139.11101 | 34333 ft | 458 kts | 308° |
| 2026-05-07 07:05 | 49.43709 | -139.17936 | 34332 ft | 458 kts | 308° |
| 2026-05-07 07:06 | 49.48276 | -139.24776 | 34337 ft | 458 kts | 308° |
| 2026-05-07 07:06 | 49.52802 | -139.31599 | 34338 ft | 458 kts | 308° |
| 2026-05-07 07:07 | 49.57343 | -139.38502 | 34326 ft | 459 kts | 308° |
| 2026-05-07 07:07 | 49.61897 | -139.45406 | 34325 ft | 459 kts | 308° |
| 2026-05-07 07:08 | 49.66457 | -139.52314 | 34327 ft | 459 kts | 308° |
| 2026-05-07 07:08 | 49.71013 | -139.59229 | 34328 ft | 459 kts | 308° |
| 2026-05-07 07:09 | 49.75572 | -139.66171 | 34328 ft | 460 kts | 308° |
| 2026-05-07 07:09 | 49.80121 | -139.73115 | 34324 ft | 459 kts | 308° |
| 2026-05-07 07:10 | 49.84671 | -139.80082 | 34323 ft | 459 kts | 308° |
| 2026-05-07 07:10 | 49.89214 | -139.87057 | 34321 ft | 459 kts | 308° |
| 2026-05-07 07:11 | 49.93753 | -139.94046 | 34321 ft | 459 kts | 308° |
| 2026-05-07 07:11 | 49.98248 | -140.00986 | 34314 ft | 459 kts | 308° |
| 2026-05-07 07:12 | 50.02461 | -140.08330 | 34321 ft | 447 kts | 296° |
| 2026-05-07 07:12 | 50.05066 | -140.16887 | 34314 ft | 435 kts | 284° |
| 2026-05-07 07:13 | 50.07105 | -140.25750 | 34315 ft | 435 kts | 283° |
| 2026-05-07 07:13 | 50.09194 | -140.34598 | 34312 ft | 435 kts | 284° |
| 2026-05-07 07:14 | 50.11351 | -140.43407 | 34310 ft | 436 kts | 284° |
| 2026-05-07 07:14 | 50.13529 | -140.52218 | 34305 ft | 435 kts | 284° |
| 2026-05-07 07:15 | 50.15686 | -140.60966 | 34302 ft | 435 kts | 284° |
| 2026-05-07 07:15 | 50.17852 | -140.69793 | 34298 ft | 435 kts | 284° |
| 2026-05-07 07:16 | 50.20008 | -140.78618 | 34298 ft | 435 kts | 284° |
| 2026-05-07 07:16 | 50.22156 | -140.87447 | 34292 ft | 435 kts | 284° |
| 2026-05-07 07:17 | 50.24297 | -140.96287 | 34290 ft | 435 kts | 284° |
| 2026-05-07 07:17 | 50.26433 | -141.05139 | 34288 ft | 435 kts | 284° |
| 2026-05-07 07:18 | 50.28553 | -141.13958 | 34285 ft | 436 kts | 284° |
| 2026-05-07 07:18 | 50.30680 | -141.22841 | 34285 ft | 436 kts | 284° |
| 2026-05-07 07:19 | 50.32797 | -141.31742 | 34279 ft | 436 kts | 283° |
| 2026-05-07 07:19 | 50.34872 | -141.40672 | 34279 ft | 436 kts | 283° |
| 2026-05-07 07:20 | 50.36958 | -141.49609 | 34271 ft | 437 kts | 283° |
| 2026-05-07 07:20 | 50.39057 | -141.58553 | 34272 ft | 437 kts | 283° |
| 2026-05-07 07:21 | 50.41159 | -141.67514 | 34270 ft | 438 kts | 283° |
| 2026-05-07 07:21 | 50.43255 | -141.76487 | 34260 ft | 438 kts | 283° |
| 2026-05-07 07:22 | 50.45344 | -141.85469 | 34261 ft | 438 kts | 283° |
| 2026-05-07 07:22 | 50.47425 | -141.94453 | 34257 ft | 438 kts | 283° |
| 2026-05-07 07:23 | 50.49497 | -142.03441 | 34251 ft | 438 kts | 283° |
| 2026-05-07 07:23 | 50.51562 | -142.12434 | 34254 ft | 437 kts | 283° |
| 2026-05-07 07:24 | 50.53608 | -142.21379 | 34244 ft | 437 kts | 283° |
| 2026-05-07 07:24 | 50.55659 | -142.30389 | 34244 ft | 437 kts | 283° |
| 2026-05-07 07:25 | 50.58719 | -142.43900 | 34236 ft | 437 kts | 283° |
| 2026-05-07 07:26 | 50.60748 | -142.52912 | 34235 ft | 436 kts | 283° |
| 2026-05-07 07:26 | 50.62729 | -142.61931 | 34234 ft | 436 kts | 282° |
| 2026-05-07 07:27 | 50.64712 | -142.70959 | 34225 ft | 436 kts | 283° |
| 2026-05-07 07:27 | 50.66696 | -142.79918 | 34225 ft | 436 kts | 283° |
| 2026-05-07 07:28 | 50.68694 | -142.88947 | 34222 ft | 436 kts | 283° |
| 2026-05-07 07:28 | 50.70689 | -142.97991 | 34215 ft | 436 kts | 283° |
| 2026-05-07 07:29 | 50.72678 | -143.07052 | 34209 ft | 437 kts | 282° |
| 2026-05-07 07:29 | 50.74323 | -143.14581 | 34209 ft | 437 kts | 282° |
| 2026-05-07 07:30 | 50.76301 | -143.23664 | 34203 ft | 437 kts | 282° |
| 2026-05-07 07:30 | 50.78268 | -143.32738 | 34201 ft | 437 kts | 282° |
| 2026-05-07 07:31 | 50.80230 | -143.41827 | 34195 ft | 436 kts | 282° |
| 2026-05-07 07:31 | 50.82181 | -143.50909 | 34195 ft | 436 kts | 282° |
| 2026-05-07 07:32 | 50.84126 | -143.60004 | 34197 ft | 435 kts | 282° |
| 2026-05-07 07:32 | 50.86062 | -143.69093 | 34185 ft | 435 kts | 282° |
| 2026-05-07 07:33 | 50.87970 | -143.78110 | 34179 ft | 434 kts | 281° |
| 2026-05-07 07:33 | 50.89844 | -143.87207 | 34178 ft | 434 kts | 281° |
| 2026-05-07 07:34 | 50.91725 | -143.96298 | 34174 ft | 434 kts | 281° |
| 2026-05-07 07:34 | 50.93616 | -144.05374 | 34169 ft | 434 kts | 281° |
| 2026-05-07 07:35 | 50.95507 | -144.14461 | 34168 ft | 433 kts | 281° |
| 2026-05-07 07:35 | 50.97391 | -144.23545 | 34160 ft | 433 kts | 281° |
| 2026-05-07 07:36 | 50.99266 | -144.32634 | 34160 ft | 433 kts | 281° |
| 2026-05-07 07:36 | 51.01131 | -144.41718 | 34153 ft | 433 kts | 281° |
| 2026-05-07 07:37 | 51.02979 | -144.50756 | 34148 ft | 433 kts | 281° |
| 2026-05-07 07:37 | 51.04830 | -144.59853 | 34149 ft | 433 kts | 280° |
| 2026-05-07 07:38 | 51.06674 | -144.68957 | 34149 ft | 433 kts | 280° |
| 2026-05-07 07:38 | 51.08512 | -144.78079 | 34146 ft | 433 kts | 280° |
| 2026-05-07 07:39 | 51.10343 | -144.87201 | 34146 ft | 433 kts | 280° |
| 2026-05-07 07:39 | 51.12168 | -144.96340 | 34142 ft | 433 kts | 280° |
| 2026-05-07 07:40 | 51.13977 | -145.05491 | 34139 ft | 433 kts | 279° |
| 2026-05-07 07:40 | 51.15745 | -145.14671 | 34134 ft | 433 kts | 279° |
| 2026-05-07 07:41 | 51.17530 | -145.23857 | 34133 ft | 434 kts | 279° |
| 2026-05-07 07:41 | 51.19326 | -145.33043 | 34132 ft | 434 kts | 279° |
| 2026-05-07 07:42 | 51.21121 | -145.42246 | 34126 ft | 434 kts | 279° |
| 2026-05-07 07:42 | 51.22896 | -145.51390 | 34124 ft | 434 kts | 279° |
| 2026-05-07 07:43 | 51.24675 | -145.60600 | 34130 ft | 434 kts | 279° |
| 2026-05-07 07:43 | 51.26448 | -145.69820 | 34122 ft | 434 kts | 279° |
| 2026-05-07 07:44 | 51.28213 | -145.79047 | 34126 ft | 434 kts | 279° |
| 2026-05-07 07:44 | 51.29972 | -145.88287 | 34114 ft | 435 kts | 278° |
| 2026-05-07 07:45 | 51.31722 | -145.97529 | 34119 ft | 434 kts | 278° |
| 2026-05-07 07:45 | 51.33466 | -146.06777 | 34122 ft | 434 kts | 278° |
| 2026-05-07 07:46 | 51.35205 | -146.16048 | 34117 ft | 434 kts | 278° |
| 2026-05-07 07:46 | 51.36934 | -146.25314 | 34113 ft | 434 kts | 278° |
| 2026-05-07 07:47 | 51.38635 | -146.34592 | 34116 ft | 434 kts | 277° |
| 2026-05-07 07:47 | 51.40294 | -146.43813 | 34118 ft | 434 kts | 277° |
| 2026-05-07 07:48 | 51.41985 | -146.53107 | 34119 ft | 434 kts | 277° |
| 2026-05-07 07:48 | 51.43681 | -146.62398 | 34118 ft | 434 kts | 277° |
| 2026-05-07 07:49 | 51.45374 | -146.71697 | 34115 ft | 434 kts | 277° |
| 2026-05-07 07:49 | 51.47057 | -146.80991 | 34117 ft | 434 kts | 277° |
| 2026-05-07 07:50 | 51.48736 | -146.90309 | 34117 ft | 434 kts | 277° |
| 2026-05-07 07:50 | 51.50404 | -146.99617 | 34115 ft | 434 kts | 277° |
| 2026-05-07 07:51 | 51.52066 | -147.08939 | 34119 ft | 434 kts | 277° |
| 2026-05-07 07:51 | 51.53708 | -147.18201 | 34115 ft | 434 kts | 277° |
| 2026-05-07 07:52 | 51.55356 | -147.27536 | 34116 ft | 434 kts | 276° |
| 2026-05-07 07:52 | 51.56995 | -147.36874 | 34121 ft | 434 kts | 276° |
| 2026-05-07 07:53 | 51.58624 | -147.46207 | 34112 ft | 434 kts | 276° |
| 2026-05-07 07:53 | 51.60248 | -147.55558 | 34115 ft | 434 kts | 276° |
| 2026-05-07 07:54 | 51.61833 | -147.64925 | 34114 ft | 433 kts | 276° |
| 2026-05-07 07:54 | 51.63401 | -147.74283 | 34120 ft | 433 kts | 276° |
| 2026-05-07 07:55 | 51.64989 | -147.83648 | 34121 ft | 433 kts | 276° |
| 2026-05-07 07:55 | 51.66580 | -147.93018 | 34120 ft | 434 kts | 276° |
| 2026-05-07 07:56 | 51.68166 | -148.02394 | 34120 ft | 434 kts | 276° |
| 2026-05-07 07:56 | 51.69745 | -148.11780 | 34118 ft | 434 kts | 276° |
| 2026-05-07 07:57 | 51.71316 | -148.21172 | 34120 ft | 434 kts | 276° |
| 2026-05-07 07:57 | 51.72879 | -148.30568 | 34123 ft | 434 kts | 275° |
| 2026-05-07 07:58 | 51.74435 | -148.39975 | 34117 ft | 434 kts | 275° |
| 2026-05-07 07:58 | 51.75975 | -148.49334 | 34119 ft | 434 kts | 275° |
| 2026-05-07 07:59 | 51.77518 | -148.58762 | 34120 ft | 434 kts | 275° |
| 2026-05-07 07:59 | 51.79052 | -148.68195 | 34120 ft | 434 kts | 275° |
| 2026-05-07 08:00 | 51.80577 | -148.77621 | 34117 ft | 434 kts | 275° |
| 2026-05-07 08:00 | 51.82095 | -148.87060 | 34120 ft | 434 kts | 275° |
| 2026-05-07 08:01 | 51.83558 | -148.96477 | 34123 ft | 433 kts | 275° |
| 2026-05-07 08:01 | 51.85028 | -149.05934 | 34125 ft | 433 kts | 275° |
| 2026-05-07 08:02 | 51.86514 | -149.15388 | 34123 ft | 433 kts | 275° |
| 2026-05-07 08:02 | 51.88002 | -149.24855 | 34124 ft | 434 kts | 275° |
| 2026-05-07 08:03 | 51.89481 | -149.34312 | 34120 ft | 433 kts | 275° |
| 2026-05-07 08:03 | 51.90943 | -149.43717 | 34120 ft | 433 kts | 275° |
| 2026-05-07 08:04 | 51.92406 | -149.53179 | 34125 ft | 433 kts | 275° |
| 2026-05-07 08:04 | 51.93861 | -149.62651 | 34116 ft | 433 kts | 275° |
| 2026-05-07 08:05 | 51.95310 | -149.72134 | 34118 ft | 432 kts | 275° |
| 2026-05-07 08:05 | 51.96745 | -149.81585 | 34117 ft | 432 kts | 275° |
| 2026-05-07 08:06 | 51.98174 | -149.91053 | 34120 ft | 431 kts | 274° |
| 2026-05-07 08:06 | 51.99591 | -150.00496 | 34123 ft | 431 kts | 274° |
| 2026-05-07 08:07 | 52.00508 | -150.09953 | 34117 ft | 420 kts | 266° |
| 2026-05-07 08:07 | 52.00863 | -150.19376 | 34113 ft | 417 kts | 264° |
| 2026-05-07 08:08 | 52.01181 | -150.28722 | 34118 ft | 417 kts | 264° |
| 2026-05-07 08:08 | 52.01537 | -150.38113 | 34123 ft | 417 kts | 264° |
| 2026-05-07 08:09 | 52.01904 | -150.47502 | 34125 ft | 416 kts | 264° |
| 2026-05-07 08:09 | 52.02268 | -150.56886 | 34119 ft | 416 kts | 264° |
| 2026-05-07 08:10 | 52.02625 | -150.66282 | 34126 ft | 417 kts | 264° |
| 2026-05-07 08:10 | 52.02974 | -150.75688 | 34115 ft | 417 kts | 264° |
| 2026-05-07 08:11 | 52.03315 | -150.85085 | 34112 ft | 417 kts | 264° |
| 2026-05-07 08:11 | 52.03650 | -150.94491 | 34113 ft | 417 kts | 264° |
| 2026-05-07 08:12 | 52.03974 | -151.03838 | 34112 ft | 417 kts | 264° |
| 2026-05-07 08:12 | 52.04293 | -151.13261 | 34112 ft | 418 kts | 264° |
| 2026-05-07 08:13 | 52.04605 | -151.22702 | 34110 ft | 420 kts | 264° |
| 2026-05-07 08:13 | 52.04911 | -151.32192 | 34110 ft | 421 kts | 264° |
| 2026-05-07 08:14 | 52.05197 | -151.41713 | 34112 ft | 422 kts | 264° |
| 2026-05-07 08:14 | 52.05442 | -151.51263 | 34109 ft | 424 kts | 264° |
| 2026-05-07 08:15 | 52.05705 | -151.60847 | 34111 ft | 426 kts | 264° |
| 2026-05-07 08:15 | 52.05933 | -151.68840 | 34110 ft | 427 kts | 264° |
| 2026-05-07 08:16 | 52.06251 | -151.80099 | 34106 ft | 430 kts | 264° |
| 2026-05-07 08:16 | 52.06475 | -151.88255 | 34109 ft | 431 kts | 265° |
| 2026-05-07 08:17 | 52.06735 | -151.97964 | 34109 ft | 434 kts | 265° |
| 2026-05-07 08:17 | 52.06990 | -152.07792 | 34109 ft | 436 kts | 265° |
| 2026-05-07 08:18 | 52.07237 | -152.17668 | 34107 ft | 438 kts | 265° |
| 2026-05-07 08:18 | 52.07477 | -152.27590 | 34100 ft | 441 kts | 265° |
| 2026-05-07 08:19 | 52.07711 | -152.37563 | 34103 ft | 442 kts | 265° |
| 2026-05-07 08:19 | 52.07936 | -152.47590 | 34100 ft | 444 kts | 266° |
| 2026-05-07 08:20 | 52.08155 | -152.57656 | 34100 ft | 446 kts | 266° |
| 2026-05-07 08:20 | 52.08364 | -152.67765 | 34197 ft | 450 kts | 266° |
| 2026-05-07 08:20 | 52.08465 | -152.72851 | 34458 ft | 451 kts | 266° |
| 2026-05-07 08:21 | 52.08546 | -152.77956 | 34726 ft | 452 kts | 266° |
| 2026-05-07 08:21 | 52.08617 | -152.83007 | 34995 ft | 453 kts | 266° |
| 2026-05-07 08:21 | 52.08693 | -152.88129 | 35250 ft | 454 kts | 266° |
| 2026-05-07 08:21 | 52.08776 | -152.93334 | 35514 ft | 455 kts | 267° |
| 2026-05-07 08:22 | 52.08861 | -152.98412 | 35775 ft | 456 kts | 267° |
| 2026-05-07 08:22 | 52.08949 | -153.03571 | 36007 ft | 457 kts | 267° |
| 2026-05-07 08:22 | 52.09037 | -153.08740 | 36073 ft | 457 kts | 268° |
| 2026-05-07 08:23 | 52.09209 | -153.19073 | 36101 ft | 457 kts | 268° |
| 2026-05-07 08:23 | 52.09371 | -153.29433 | 36104 ft | 458 kts | 268° |
| 2026-05-07 08:24 | 52.09524 | -153.39817 | 36104 ft | 459 kts | 268° |
| 2026-05-07 08:24 | 52.09667 | -153.50199 | 36091 ft | 459 kts | 268° |
| 2026-05-07 08:25 | 52.09800 | -153.60521 | 36104 ft | 460 kts | 268° |
| 2026-05-07 08:25 | 52.09926 | -153.70939 | 36095 ft | 461 kts | 268° |
| 2026-05-07 08:26 | 52.10097 | -153.86594 | 36092 ft | 461 kts | 268° |
| 2026-05-07 08:26 | 52.10199 | -153.97029 | 36097 ft | 462 kts | 268° |
| 2026-05-07 08:27 | 52.10292 | -154.07482 | 36093 ft | 462 kts | 268° |
| 2026-05-07 08:27 | 52.10332 | -154.17947 | 36091 ft | 462 kts | 267° |
| 2026-05-07 08:28 | 52.10371 | -154.28412 | 36098 ft | 463 kts | 267° |
| 2026-05-07 08:28 | 52.10427 | -154.38903 | 36092 ft | 463 kts | 268° |
| 2026-05-07 08:29 | 52.10484 | -154.49321 | 36092 ft | 464 kts | 268° |
| 2026-05-07 08:29 | 52.10532 | -154.59817 | 36091 ft | 464 kts | 268° |
| 2026-05-07 08:30 | 52.10571 | -154.70334 | 36087 ft | 464 kts | 268° |
| 2026-05-07 08:30 | 52.10599 | -154.80850 | 36089 ft | 464 kts | 268° |
| 2026-05-07 08:31 | 52.10619 | -154.91361 | 36090 ft | 465 kts | 268° |
| 2026-05-07 08:31 | 52.10628 | -155.01884 | 36094 ft | 465 kts | 268° |
| 2026-05-07 08:32 | 52.10629 | -155.12331 | 36087 ft | 465 kts | 268° |
| 2026-05-07 08:32 | 52.10620 | -155.22855 | 36088 ft | 465 kts | 268° |
| 2026-05-07 08:33 | 52.10602 | -155.33389 | 36086 ft | 465 kts | 267° |
| 2026-05-07 08:33 | 52.10572 | -155.43921 | 36085 ft | 465 kts | 267° |
| 2026-05-07 08:34 | 52.10485 | -155.54453 | 36088 ft | 465 kts | 267° |
| 2026-05-07 08:34 | 52.10407 | -155.64978 | 36081 ft | 465 kts | 267° |
| 2026-05-07 08:35 | 52.10344 | -155.75431 | 36081 ft | 465 kts | 267° |
| 2026-05-07 08:35 | 52.10280 | -155.85950 | 36085 ft | 465 kts | 267° |
| 2026-05-07 08:36 | 52.10206 | -155.96471 | 36082 ft | 465 kts | 267° |
| 2026-05-07 08:36 | 52.10123 | -156.07008 | 36075 ft | 465 kts | 267° |
| 2026-05-07 08:37 | 52.10029 | -156.17534 | 36077 ft | 466 kts | 267° |
| 2026-05-07 08:37 | 52.09926 | -156.28070 | 36077 ft | 466 kts | 267° |
| 2026-05-07 08:38 | 52.09814 | -156.38618 | 36077 ft | 466 kts | 267° |
| 2026-05-07 08:38 | 52.09692 | -156.49114 | 36085 ft | 466 kts | 267° |
| 2026-05-07 08:39 | 52.09561 | -156.59642 | 36080 ft | 466 kts | 267° |
| 2026-05-07 08:39 | 52.09421 | -156.70195 | 36080 ft | 466 kts | 267° |
| 2026-05-07 08:40 | 52.09262 | -156.80741 | 36069 ft | 466 kts | 266° |
| 2026-05-07 08:40 | 52.09051 | -156.91298 | 36072 ft | 467 kts | 266° |
| 2026-05-07 08:41 | 52.08855 | -157.01855 | 36075 ft | 467 kts | 267° |
| 2026-05-07 08:41 | 52.08672 | -157.12412 | 36073 ft | 467 kts | 267° |
| 2026-05-07 08:42 | 52.08486 | -157.22906 | 36061 ft | 467 kts | 267° |
| 2026-05-07 08:42 | 52.08289 | -157.33456 | 36062 ft | 467 kts | 267° |
| 2026-05-07 08:43 | 52.08082 | -157.44035 | 36072 ft | 467 kts | 267° |
| 2026-05-07 08:43 | 52.07865 | -157.54605 | 36071 ft | 468 kts | 267° |
| 2026-05-07 08:44 | 52.07639 | -157.65173 | 36063 ft | 468 kts | 267° |
| 2026-05-07 08:44 | 52.07403 | -157.75737 | 36058 ft | 468 kts | 267° |
| 2026-05-07 08:45 | 52.07159 | -157.86249 | 36068 ft | 468 kts | 267° |
| 2026-05-07 08:45 | 52.06904 | -157.96835 | 36056 ft | 468 kts | 267° |
| 2026-05-07 08:46 | 52.06639 | -158.07414 | 36057 ft | 468 kts | 266° |
| 2026-05-07 08:46 | 52.06347 | -158.17998 | 36058 ft | 468 kts | 266° |
| 2026-05-07 08:47 | 52.06014 | -158.28562 | 36055 ft | 468 kts | 266° |
| 2026-05-07 08:47 | 52.05701 | -158.39134 | 36056 ft | 468 kts | 266° |
| 2026-05-07 08:48 | 52.05396 | -158.49707 | 36054 ft | 468 kts | 266° |
| 2026-05-07 08:48 | 52.05085 | -158.60277 | 36050 ft | 468 kts | 266° |
| 2026-05-07 08:49 | 52.04766 | -158.70782 | 36051 ft | 468 kts | 266° |
| 2026-05-07 08:49 | 52.04436 | -158.81348 | 36047 ft | 468 kts | 266° |
| 2026-05-07 08:50 | 52.04095 | -158.91920 | 36046 ft | 468 kts | 266° |
| 2026-05-07 08:50 | 52.03745 | -159.02481 | 36045 ft | 468 kts | 266° |
| 2026-05-07 08:51 | 52.03387 | -159.13029 | 36046 ft | 468 kts | 266° |
| 2026-05-07 08:51 | 52.03018 | -159.23595 | 36044 ft | 468 kts | 266° |
| 2026-05-07 08:52 | 52.02639 | -159.34152 | 36040 ft | 468 kts | 266° |
| 2026-05-07 08:52 | 52.02254 | -159.44654 | 36039 ft | 468 kts | 266° |
| 2026-05-07 08:53 | 52.01825 | -159.55227 | 36036 ft | 469 kts | 266° |
| 2026-05-07 08:53 | 52.01374 | -159.65788 | 36035 ft | 469 kts | 266° |
| 2026-05-07 08:54 | 52.00942 | -159.76376 | 36038 ft | 470 kts | 266° |
| 2026-05-07 08:54 | 52.00516 | -159.86914 | 36035 ft | 470 kts | 266° |
| 2026-05-07 08:55 | 51.99864 | -159.97492 | 36032 ft | 471 kts | 260° |
| 2026-05-07 08:55 | 51.98408 | -160.07864 | 36029 ft | 472 kts | 256° |
| 2026-05-07 08:56 | 51.96765 | -160.18197 | 36029 ft | 472 kts | 256° |
| 2026-05-07 08:56 | 51.95163 | -160.28531 | 36026 ft | 473 kts | 257° |
| 2026-05-07 08:57 | 51.93587 | -160.38885 | 36027 ft | 473 kts | 257° |
| 2026-05-07 08:57 | 51.92021 | -160.49168 | 36026 ft | 473 kts | 257° |
| 2026-05-07 08:58 | 51.90433 | -160.59530 | 36020 ft | 474 kts | 257° |
| 2026-05-07 08:58 | 51.88834 | -160.69888 | 36017 ft | 474 kts | 257° |
| 2026-05-07 08:59 | 51.87226 | -160.80234 | 36022 ft | 474 kts | 257° |
| 2026-05-07 08:59 | 51.85606 | -160.90587 | 36018 ft | 474 kts | 257° |
| 2026-05-07 09:00 | 51.83980 | -161.00914 | 36016 ft | 474 kts | 257° |
| 2026-05-07 09:00 | 51.82354 | -161.11182 | 36006 ft | 474 kts | 257° |
| 2026-05-07 09:01 | 51.80711 | -161.21489 | 36005 ft | 474 kts | 257° |
| 2026-05-07 09:01 | 51.79023 | -161.31799 | 36015 ft | 474 kts | 256° |
| 2026-05-07 09:02 | 51.77320 | -161.42085 | 35998 ft | 474 kts | 256° |
| 2026-05-07 09:02 | 51.75634 | -161.52382 | 36001 ft | 474 kts | 256° |
| 2026-05-07 09:03 | 51.73952 | -161.62679 | 35996 ft | 474 kts | 257° |
| 2026-05-07 09:03 | 51.72546 | -161.71240 | 36003 ft | 474 kts | 256° |
| 2026-05-07 09:04 | 51.70571 | -161.83194 | 36003 ft | 475 kts | 256° |
| 2026-05-07 09:04 | 51.68860 | -161.93481 | 36002 ft | 475 kts | 256° |
| 2026-05-07 09:05 | 51.67428 | -162.02038 | 35990 ft | 475 kts | 256° |
| 2026-05-07 09:05 | 51.65694 | -162.12341 | 35997 ft | 476 kts | 256° |
| 2026-05-07 09:06 | 51.63952 | -162.22635 | 35992 ft | 476 kts | 256° |
| 2026-05-07 09:06 | 51.62202 | -162.32917 | 35983 ft | 476 kts | 256° |
| 2026-05-07 09:07 | 51.60452 | -162.43137 | 35985 ft | 477 kts | 256° |
| 2026-05-07 09:07 | 51.58679 | -162.53424 | 35985 ft | 477 kts | 256° |
| 2026-05-07 09:08 | 51.56852 | -162.63703 | 35981 ft | 478 kts | 256° |
| 2026-05-07 09:08 | 51.55026 | -162.73979 | 35978 ft | 478 kts | 256° |
| 2026-05-07 09:09 | 51.53217 | -162.84253 | 35966 ft | 478 kts | 256° |
| 2026-05-07 09:09 | 51.51406 | -162.94527 | 35974 ft | 478 kts | 256° |
| 2026-05-07 09:10 | 51.49584 | -163.04808 | 35969 ft | 479 kts | 256° |
| 2026-05-07 09:10 | 51.47767 | -163.14999 | 35963 ft | 479 kts | 255° |
| 2026-05-07 09:11 | 51.45923 | -163.25280 | 35961 ft | 479 kts | 255° |
| 2026-05-07 09:11 | 51.44072 | -163.35543 | 35956 ft | 479 kts | 255° |
| 2026-05-07 09:12 | 51.42208 | -163.45815 | 35952 ft | 480 kts | 255° |
| 2026-05-07 09:12 | 51.40336 | -163.56074 | 35953 ft | 480 kts | 255° |
| 2026-05-07 09:13 | 51.38452 | -163.66344 | 35953 ft | 481 kts | 255° |
| 2026-05-07 09:13 | 51.36557 | -163.76616 | 35947 ft | 481 kts | 255° |
| 2026-05-07 09:14 | 51.34644 | -163.86813 | 35936 ft | 481 kts | 254° |
| 2026-05-07 09:14 | 51.32686 | -163.97050 | 35938 ft | 482 kts | 254° |
| 2026-05-07 09:15 | 51.30742 | -164.07310 | 35937 ft | 482 kts | 254° |
| 2026-05-07 09:15 | 51.28807 | -164.17567 | 35930 ft | 482 kts | 254° |
| 2026-05-07 09:16 | 51.26863 | -164.27827 | 35932 ft | 482 kts | 254° |
| 2026-05-07 09:16 | 51.24920 | -164.38017 | 35928 ft | 482 kts | 253° |
| 2026-05-07 09:17 | 51.22953 | -164.48276 | 35921 ft | 483 kts | 253° |
| 2026-05-07 09:17 | 51.20975 | -164.58538 | 35918 ft | 483 kts | 253° |
| 2026-05-07 09:18 | 51.18991 | -164.68771 | 35912 ft | 483 kts | 253° |
| 2026-05-07 09:18 | 51.16998 | -164.79003 | 35907 ft | 483 kts | 253° |
| 2026-05-07 09:19 | 51.15003 | -164.89184 | 35908 ft | 484 kts | 252° |
| 2026-05-07 09:19 | 51.12986 | -164.99425 | 35905 ft | 484 kts | 252° |
| 2026-05-07 09:20 | 51.10956 | -165.09661 | 35902 ft | 484 kts | 252° |
| 2026-05-07 09:20 | 51.08878 | -165.19852 | 35895 ft | 484 kts | 251° |
| 2026-05-07 09:21 | 51.06823 | -165.29971 | 35894 ft | 484 kts | 251° |
| 2026-05-07 09:21 | 51.04767 | -165.40168 | 35884 ft | 484 kts | 251° |
| 2026-05-07 09:22 | 51.02709 | -165.50356 | 35885 ft | 484 kts | 251° |
| 2026-05-07 09:22 | 51.00641 | -165.60532 | 35875 ft | 484 kts | 251° |
| 2026-05-07 09:23 | 50.98564 | -165.70698 | 35876 ft | 484 kts | 250° |
| 2026-05-07 09:23 | 50.96475 | -165.80870 | 35864 ft | 485 kts | 250° |
| 2026-05-07 09:24 | 50.94375 | -165.91045 | 35863 ft | 485 kts | 250° |
| 2026-05-07 09:24 | 50.92268 | -166.01201 | 35860 ft | 485 kts | 250° |
| 2026-05-07 09:25 | 50.90163 | -166.11297 | 35858 ft | 486 kts | 250° |
| 2026-05-07 09:25 | 50.88035 | -166.21453 | 35854 ft | 486 kts | 250° |
| 2026-05-07 09:26 | 50.85895 | -166.31613 | 35843 ft | 486 kts | 250° |
| 2026-05-07 09:26 | 50.83715 | -166.41737 | 35847 ft | 486 kts | 249° |
| 2026-05-07 09:27 | 50.81519 | -166.51871 | 35842 ft | 487 kts | 249° |
| 2026-05-07 09:28 | 50.78247 | -166.67095 | 35837 ft | 487 kts | 249° |
| 2026-05-07 09:28 | 50.76066 | -166.77228 | 35831 ft | 487 kts | 249° |
| 2026-05-07 09:29 | 50.73886 | -166.87297 | 35823 ft | 488 kts | 249° |
| 2026-05-07 09:29 | 50.71683 | -166.97426 | 35824 ft | 488 kts | 249° |
| 2026-05-07 09:30 | 50.69470 | -167.07546 | 35819 ft | 488 kts | 249° |
| 2026-05-07 09:30 | 50.67247 | -167.17661 | 35815 ft | 488 kts | 249° |
| 2026-05-07 09:31 | 50.65012 | -167.27785 | 35815 ft | 488 kts | 249° |
| 2026-05-07 09:31 | 50.62769 | -167.37890 | 35804 ft | 488 kts | 248° |
| 2026-05-07 09:32 | 50.60521 | -167.47972 | 35798 ft | 488 kts | 248° |
| 2026-05-07 09:32 | 50.58275 | -167.57991 | 35799 ft | 488 kts | 248° |
| 2026-05-07 09:33 | 50.55964 | -167.68050 | 35794 ft | 488 kts | 248° |
| 2026-05-07 09:33 | 50.53656 | -167.78110 | 35789 ft | 489 kts | 248° |
| 2026-05-07 09:34 | 50.51365 | -167.88157 | 35786 ft | 489 kts | 248° |
| 2026-05-07 09:34 | 50.49070 | -167.98209 | 35782 ft | 489 kts | 248° |
| 2026-05-07 09:35 | 50.46765 | -168.08262 | 35780 ft | 489 kts | 248° |
| 2026-05-07 09:35 | 50.44460 | -168.18260 | 35778 ft | 489 kts | 247° |
| 2026-05-07 09:36 | 50.42136 | -168.28293 | 35774 ft | 489 kts | 247° |
| 2026-05-07 09:36 | 50.39799 | -168.38335 | 35775 ft | 490 kts | 247° |
| 2026-05-07 09:37 | 50.37451 | -168.48374 | 35771 ft | 490 kts | 247° |
| 2026-05-07 09:37 | 50.35112 | -168.58330 | 35764 ft | 490 kts | 247° |
| 2026-05-07 09:38 | 50.32747 | -168.68353 | 35763 ft | 491 kts | 246° |
| 2026-05-07 09:38 | 50.30370 | -168.78377 | 35756 ft | 491 kts | 246° |
| 2026-05-07 09:39 | 50.27951 | -168.88376 | 35755 ft | 492 kts | 246° |
| 2026-05-07 09:39 | 50.25519 | -168.98371 | 35755 ft | 492 kts | 246° |
| 2026-05-07 09:40 | 50.23102 | -169.08380 | 35752 ft | 493 kts | 246° |
| 2026-05-07 09:40 | 50.20684 | -169.18392 | 35748 ft | 493 kts | 246° |
| 2026-05-07 09:41 | 50.18254 | -169.28413 | 35745 ft | 493 kts | 246° |
| 2026-05-07 09:41 | 50.15814 | -169.38424 | 35742 ft | 494 kts | 246° |
| 2026-05-07 09:42 | 50.13380 | -169.48368 | 35739 ft | 494 kts | 245° |
| 2026-05-07 09:42 | 50.10916 | -169.58384 | 35736 ft | 494 kts | 245° |
| 2026-05-07 09:43 | 50.08445 | -169.68383 | 35733 ft | 494 kts | 245° |
| 2026-05-07 09:43 | 50.05968 | -169.78365 | 35738 ft | 494 kts | 245° |
| 2026-05-07 09:44 | 50.03485 | -169.88323 | 35733 ft | 493 kts | 245° |
| 2026-05-07 09:44 | 50.01011 | -169.98204 | 35722 ft | 493 kts | 245° |
| 2026-05-07 09:45 | 49.99048 | -170.08425 | 35727 ft | 497 kts | 258° |
| 2026-05-07 09:45 | 49.98366 | -170.19151 | 35733 ft | 500 kts | 264° |
| 2026-05-07 09:46 | 49.97923 | -170.29925 | 35716 ft | 499 kts | 263° |
| 2026-05-07 09:46 | 49.97382 | -170.40671 | 35718 ft | 499 kts | 262° |
| 2026-05-07 09:47 | 49.96766 | -170.51396 | 35714 ft | 498 kts | 262° |
| 2026-05-07 09:47 | 49.96127 | -170.62109 | 35721 ft | 498 kts | 262° |
| 2026-05-07 09:48 | 49.95482 | -170.72803 | 35719 ft | 497 kts | 262° |
| 2026-05-07 09:48 | 49.94830 | -170.83496 | 35713 ft | 497 kts | 262° |
| 2026-05-07 09:49 | 49.94169 | -170.94182 | 35714 ft | 497 kts | 262° |
| 2026-05-07 09:49 | 49.93503 | -171.04786 | 35706 ft | 496 kts | 262° |
| 2026-05-07 09:50 | 49.92825 | -171.15433 | 35706 ft | 496 kts | 262° |
| 2026-05-07 09:50 | 49.92135 | -171.26088 | 35704 ft | 496 kts | 262° |
| 2026-05-07 09:51 | 49.91416 | -171.36720 | 35703 ft | 495 kts | 261° |
| 2026-05-07 09:51 | 49.90663 | -171.47348 | 35703 ft | 495 kts | 261° |
| 2026-05-07 09:52 | 49.89929 | -171.57972 | 35700 ft | 495 kts | 261° |
| 2026-05-07 09:52 | 49.89202 | -171.68593 | 35701 ft | 495 kts | 261° |
| 2026-05-07 09:53 | 49.88468 | -171.79195 | 35703 ft | 494 kts | 261° |
| 2026-05-07 09:53 | 49.87724 | -171.89792 | 35701 ft | 494 kts | 261° |
| 2026-05-07 09:54 | 49.86973 | -172.00338 | 35699 ft | 494 kts | 261° |
| 2026-05-07 09:54 | 49.86208 | -172.10925 | 35696 ft | 494 kts | 261° |
| 2026-05-07 09:55 | 49.85561 | -172.19788 | 35695 ft | 494 kts | 261° |
| 2026-05-07 09:55 | 49.84786 | -172.30282 | 35696 ft | 493 kts | 261° |
| 2026-05-07 09:56 | 49.83996 | -172.40841 | 35696 ft | 493 kts | 261° |
| 2026-05-07 09:56 | 49.83195 | -172.51409 | 35692 ft | 493 kts | 261° |
| 2026-05-07 09:57 | 49.82378 | -172.61951 | 35691 ft | 493 kts | 261° |
| 2026-05-07 09:57 | 49.81511 | -172.72495 | 35684 ft | 492 kts | 261° |
| 2026-05-07 09:58 | 49.80662 | -172.82998 | 35689 ft | 491 kts | 261° |
| 2026-05-07 09:58 | 49.79824 | -172.93496 | 35690 ft | 491 kts | 261° |
| 2026-05-07 09:59 | 49.78989 | -173.03895 | 35697 ft | 490 kts | 261° |
| 2026-05-07 09:59 | 49.78138 | -173.14360 | 35697 ft | 489 kts | 261° |
| 2026-05-07 10:00 | 49.77280 | -173.24799 | 35703 ft | 489 kts | 261° |
| 2026-05-07 10:00 | 49.76412 | -173.35223 | 35703 ft | 488 kts | 261° |
| 2026-05-07 10:01 | 49.75537 | -173.45623 | 35704 ft | 487 kts | 261° |
| 2026-05-07 10:01 | 49.74653 | -173.56015 | 35702 ft | 487 kts | 261° |
| 2026-05-07 10:02 | 49.73766 | -173.66333 | 35708 ft | 486 kts | 261° |
| 2026-05-07 10:02 | 49.72866 | -173.76683 | 35704 ft | 486 kts | 261° |
| 2026-05-07 10:03 | 49.71956 | -173.87024 | 35709 ft | 485 kts | 261° |
| 2026-05-07 10:03 | 49.70996 | -173.97325 | 35707 ft | 484 kts | 260° |
| 2026-05-07 10:04 | 49.70042 | -174.07617 | 35713 ft | 483 kts | 261° |
| 2026-05-07 10:04 | 49.69103 | -174.17906 | 35717 ft | 483 kts | 261° |
| 2026-05-07 10:05 | 49.68164 | -174.28170 | 35721 ft | 482 kts | 261° |
| 2026-05-07 10:05 | 49.67218 | -174.38412 | 35717 ft | 482 kts | 260° |
| 2026-05-07 10:06 | 49.66264 | -174.48639 | 35716 ft | 481 kts | 260° |
| 2026-05-07 10:06 | 49.65301 | -174.58844 | 35717 ft | 481 kts | 260° |
| 2026-05-07 10:07 | 49.64336 | -174.68983 | 35717 ft | 480 kts | 260° |
| 2026-05-07 10:07 | 49.63358 | -174.79159 | 35727 ft | 479 kts | 260° |
| 2026-05-07 10:08 | 49.62369 | -174.89342 | 35725 ft | 479 kts | 260° |
| 2026-05-07 10:08 | 49.61374 | -174.99495 | 35727 ft | 478 kts | 260° |
| 2026-05-07 10:09 | 49.60373 | -175.09622 | 35729 ft | 478 kts | 260° |
| 2026-05-07 10:09 | 49.59338 | -175.19742 | 35733 ft | 477 kts | 259° |
| 2026-05-07 10:10 | 49.58279 | -175.29827 | 35732 ft | 477 kts | 259° |
| 2026-05-07 10:10 | 49.57245 | -175.39857 | 35742 ft | 476 kts | 259° |
| 2026-05-07 10:11 | 49.56211 | -175.49934 | 35740 ft | 476 kts | 259° |
| 2026-05-07 10:11 | 49.55172 | -175.59989 | 35745 ft | 476 kts | 259° |
| 2026-05-07 10:12 | 49.54122 | -175.70057 | 35745 ft | 475 kts | 259° |
| 2026-05-07 10:12 | 49.53064 | -175.80109 | 35745 ft | 475 kts | 259° |
| 2026-05-07 10:13 | 49.51999 | -175.90136 | 35750 ft | 474 kts | 259° |
| 2026-05-07 10:13 | 49.50925 | -176.00154 | 35752 ft | 474 kts | 259° |
| 2026-05-07 10:14 | 49.49845 | -176.10161 | 35754 ft | 474 kts | 258° |
| 2026-05-07 10:14 | 49.48761 | -176.20100 | 35756 ft | 473 kts | 258° |
| 2026-05-07 10:15 | 49.47666 | -176.30074 | 35759 ft | 472 kts | 258° |
| 2026-05-07 10:15 | 49.46562 | -176.40026 | 35767 ft | 472 kts | 258° |
| 2026-05-07 10:16 | 49.45419 | -176.49884 | 35770 ft | 471 kts | 258° |
| 2026-05-07 10:16 | 49.44273 | -176.59781 | 35772 ft | 470 kts | 258° |
| 2026-05-07 10:17 | 49.43143 | -176.69677 | 35770 ft | 469 kts | 258° |
| 2026-05-07 10:17 | 49.42014 | -176.79547 | 35779 ft | 469 kts | 258° |
| 2026-05-07 10:18 | 49.40880 | -176.89395 | 35780 ft | 468 kts | 258° |
| 2026-05-07 10:18 | 49.39736 | -176.99243 | 35785 ft | 468 kts | 258° |
| 2026-05-07 10:19 | 49.38591 | -177.09015 | 35785 ft | 467 kts | 258° |
| 2026-05-07 10:19 | 49.37435 | -177.18808 | 35792 ft | 467 kts | 258° |
| 2026-05-07 10:20 | 49.36271 | -177.28604 | 35790 ft | 466 kts | 258° |
| 2026-05-07 10:20 | 49.35100 | -177.38373 | 35796 ft | 466 kts | 258° |
| 2026-05-07 10:21 | 49.33921 | -177.48144 | 35798 ft | 465 kts | 258° |
| 2026-05-07 10:21 | 49.32734 | -177.57899 | 35802 ft | 465 kts | 258° |
| 2026-05-07 10:22 | 49.31533 | -177.67646 | 35802 ft | 465 kts | 257° |
| 2026-05-07 10:22 | 49.30296 | -177.77291 | 35809 ft | 464 kts | 257° |
| 2026-05-07 10:23 | 49.29063 | -177.87008 | 35807 ft | 464 kts | 258° |
| 2026-05-07 10:23 | 49.27842 | -177.96721 | 35813 ft | 464 kts | 258° |
| 2026-05-07 10:24 | 49.26619 | -178.06428 | 35812 ft | 464 kts | 258° |
| 2026-05-07 10:24 | 49.25390 | -178.16109 | 35816 ft | 463 kts | 258° |
| 2026-05-07 10:25 | 49.24151 | -178.25794 | 35817 ft | 463 kts | 258° |
| 2026-05-07 10:25 | 49.22907 | -178.35453 | 35821 ft | 462 kts | 257° |
| 2026-05-07 10:26 | 49.21656 | -178.45096 | 35821 ft | 462 kts | 257° |
| 2026-05-07 10:26 | 49.20405 | -178.54666 | 35825 ft | 461 kts | 257° |
| 2026-05-07 10:27 | 49.19138 | -178.64300 | 35826 ft | 461 kts | 257° |
| 2026-05-07 10:27 | 49.17867 | -178.73894 | 35830 ft | 461 kts | 257° |
| 2026-05-07 10:28 | 49.16588 | -178.83492 | 35832 ft | 460 kts | 257° |
| 2026-05-07 10:28 | 49.15294 | -178.93059 | 35835 ft | 459 kts | 257° |
| 2026-05-07 10:29 | 49.13959 | -179.02594 | 35837 ft | 459 kts | 257° |
| 2026-05-07 10:29 | 49.12640 | -179.12127 | 35842 ft | 458 kts | 257° |
| 2026-05-07 10:30 | 49.10687 | -179.26339 | 35845 ft | 458 kts | 257° |
| 2026-05-07 10:30 | 49.09372 | -179.35855 | 35842 ft | 457 kts | 257° |
| 2026-05-07 10:31 | 49.08051 | -179.45354 | 35848 ft | 457 kts | 257° |
| 2026-05-07 10:31 | 49.06724 | -179.54830 | 35844 ft | 456 kts | 257° |
| 2026-05-07 10:32 | 49.05399 | -179.64226 | 35855 ft | 456 kts | 257° |
| 2026-05-07 10:32 | 49.04058 | -179.73684 | 35852 ft | 456 kts | 257° |
| 2026-05-07 10:33 | 49.02709 | -179.83129 | 35857 ft | 456 kts | 257° |
| 2026-05-07 10:33 | 49.00989 | -179.92415 | 35856 ft | 455 kts | 250° |
| 2026-05-07 10:34 | 48.98789 | 179.98551 | 35964 ft | 456 kts | 250° |
| 2026-05-07 10:34 | 48.96541 | 179.89493 | 35866 ft | 457 kts | 251° |
| 2026-05-07 10:35 | 48.94330 | 179.80428 | 35866 ft | 456 kts | 252° |
| 2026-05-07 10:35 | 48.92135 | 179.71379 | 35868 ft | 456 kts | 252° |
| 2026-05-07 10:36 | 48.89940 | 179.62349 | 35873 ft | 455 kts | 252° |
| 2026-05-07 10:36 | 48.87740 | 179.53343 | 35874 ft | 454 kts | 252° |
| 2026-05-07 10:37 | 48.85549 | 179.44415 | 35874 ft | 454 kts | 252° |
| 2026-05-07 10:37 | 48.83337 | 179.35436 | 35876 ft | 453 kts | 252° |
| 2026-05-07 10:38 | 48.81122 | 179.26482 | 35880 ft | 453 kts | 252° |
| 2026-05-07 10:38 | 48.78899 | 179.17529 | 35879 ft | 453 kts | 252° |
| 2026-05-07 10:39 | 48.76674 | 179.08606 | 35884 ft | 452 kts | 252° |
| 2026-05-07 10:39 | 48.74455 | 178.99745 | 35880 ft | 452 kts | 252° |
| 2026-05-07 10:40 | 48.72202 | 178.90860 | 35887 ft | 451 kts | 251° |
| 2026-05-07 10:40 | 48.69921 | 178.81989 | 35887 ft | 451 kts | 251° |
| 2026-05-07 10:41 | 48.67663 | 178.73142 | 35890 ft | 450 kts | 251° |
| 2026-05-07 10:41 | 48.65413 | 178.64303 | 35894 ft | 450 kts | 252° |
| 2026-05-07 10:42 | 48.63173 | 178.55526 | 35892 ft | 449 kts | 252° |
| 2026-05-07 10:42 | 48.60915 | 178.46713 | 35894 ft | 449 kts | 252° |
| 2026-05-07 10:43 | 48.58654 | 178.37927 | 35896 ft | 448 kts | 252° |
| 2026-05-07 10:43 | 48.56392 | 178.29167 | 35898 ft | 447 kts | 251° |
| 2026-05-07 10:44 | 48.54138 | 178.20475 | 35900 ft | 447 kts | 252° |
| 2026-05-07 10:44 | 48.51867 | 178.11752 | 35900 ft | 446 kts | 251° |
| 2026-05-07 10:45 | 48.49593 | 178.03049 | 35902 ft | 445 kts | 252° |
| 2026-05-07 10:45 | 48.47696 | 177.95814 | 35905 ft | 445 kts | 252° |
| 2026-05-07 10:46 | 48.45418 | 177.87154 | 35906 ft | 444 kts | 252° |
| 2026-05-07 10:46 | 48.43137 | 177.78522 | 35909 ft | 443 kts | 251° |
| 2026-05-07 10:47 | 48.40834 | 177.69986 | 35906 ft | 442 kts | 251° |
| 2026-05-07 10:47 | 48.38522 | 177.61411 | 35905 ft | 442 kts | 252° |
| 2026-05-07 10:48 | 48.36230 | 177.52857 | 35917 ft | 441 kts | 252° |
| 2026-05-07 10:48 | 48.33941 | 177.44315 | 35909 ft | 440 kts | 252° |
| 2026-05-07 10:49 | 48.31649 | 177.35793 | 35906 ft | 439 kts | 252° |
| 2026-05-07 10:49 | 48.29357 | 177.27303 | 35907 ft | 438 kts | 252° |
| 2026-05-07 10:50 | 48.27062 | 177.18832 | 35909 ft | 438 kts | 252° |
| 2026-05-07 10:50 | 48.24763 | 177.10380 | 35909 ft | 437 kts | 252° |
| 2026-05-07 10:51 | 48.22478 | 177.02006 | 35914 ft | 436 kts | 252° |
| 2026-05-07 10:51 | 48.20175 | 176.93600 | 35916 ft | 435 kts | 252° |
| 2026-05-07 10:52 | 48.17872 | 176.85222 | 35918 ft | 434 kts | 252° |
| 2026-05-07 10:52 | 48.15570 | 176.76876 | 35918 ft | 433 kts | 252° |
| 2026-05-07 10:53 | 48.13265 | 176.68552 | 35916 ft | 432 kts | 252° |
| 2026-05-07 10:53 | 48.10962 | 176.60298 | 35921 ft | 431 kts | 252° |
| 2026-05-07 10:54 | 48.08619 | 176.52047 | 35921 ft | 430 kts | 252° |
| 2026-05-07 10:54 | 48.06291 | 176.43800 | 35919 ft | 429 kts | 252° |
| 2026-05-07 10:55 | 48.03978 | 176.35576 | 35924 ft | 428 kts | 252° |
| 2026-05-07 10:55 | 48.01668 | 176.27375 | 35926 ft | 428 kts | 252° |
| 2026-05-07 10:56 | 47.99356 | 176.19195 | 35932 ft | 427 kts | 252° |
| 2026-05-07 10:56 | 47.97045 | 176.11043 | 35922 ft | 426 kts | 252° |
| 2026-05-07 10:57 | 47.94746 | 176.02966 | 35926 ft | 425 kts | 252° |
| 2026-05-07 10:57 | 47.92434 | 175.94868 | 35936 ft | 424 kts | 253° |
| 2026-05-07 10:58 | 47.90116 | 175.86778 | 35933 ft | 423 kts | 253° |
| 2026-05-07 10:58 | 47.87794 | 175.78702 | 35931 ft | 422 kts | 253° |
| 2026-05-07 10:59 | 47.85495 | 175.70730 | 35932 ft | 421 kts | 253° |
| 2026-05-07 10:59 | 47.83177 | 175.62718 | 35933 ft | 420 kts | 253° |
| 2026-05-07 11:00 | 47.80861 | 175.54741 | 35936 ft | 419 kts | 253° |
| 2026-05-07 11:00 | 47.78539 | 175.46796 | 35939 ft | 419 kts | 253° |
| 2026-05-07 11:01 | 47.76182 | 175.38877 | 35942 ft | 417 kts | 253° |
| 2026-05-07 11:01 | 47.73847 | 175.30986 | 35944 ft | 416 kts | 253° |
| 2026-05-07 11:02 | 47.71528 | 175.23121 | 35943 ft | 415 kts | 253° |
| 2026-05-07 11:02 | 47.69215 | 175.15283 | 35943 ft | 414 kts | 253° |
| 2026-05-07 11:03 | 47.66917 | 175.07522 | 35943 ft | 413 kts | 253° |
| 2026-05-07 11:03 | 47.64605 | 174.99735 | 35944 ft | 412 kts | 253° |
| 2026-05-07 11:04 | 47.62293 | 174.91973 | 35949 ft | 410 kts | 253° |
| 2026-05-07 11:04 | 47.59981 | 174.84238 | 35948 ft | 409 kts | 253° |
| 2026-05-07 11:05 | 47.57690 | 174.76595 | 35949 ft | 408 kts | 253° |
| 2026-05-07 11:05 | 47.55383 | 174.68924 | 35956 ft | 407 kts | 253° |
| 2026-05-07 11:06 | 47.53075 | 174.61272 | 35953 ft | 406 kts | 253° |
| 2026-05-07 11:06 | 47.50773 | 174.53663 | 35956 ft | 405 kts | 253° |
| 2026-05-07 11:07 | 47.48465 | 174.46057 | 35957 ft | 404 kts | 253° |
| 2026-05-07 11:07 | 47.46158 | 174.38482 | 35960 ft | 404 kts | 253° |
| 2026-05-07 11:08 | 47.43826 | 174.30926 | 35962 ft | 404 kts | 253° |
| 2026-05-07 11:08 | 47.41495 | 174.23432 | 35962 ft | 403 kts | 253° |
| 2026-05-07 11:09 | 47.39170 | 174.15906 | 35975 ft | 403 kts | 253° |
| 2026-05-07 11:09 | 47.36850 | 174.08387 | 35965 ft | 402 kts | 253° |
| 2026-05-07 11:10 | 47.34534 | 174.00894 | 35963 ft | 401 kts | 253° |
| 2026-05-07 11:10 | 47.32213 | 173.93407 | 35959 ft | 401 kts | 253° |
| 2026-05-07 11:11 | 47.29893 | 173.85944 | 35962 ft | 401 kts | 253° |
| 2026-05-07 11:11 | 47.27568 | 173.78489 | 35969 ft | 400 kts | 253° |
| 2026-05-07 11:12 | 47.25241 | 173.71049 | 35970 ft | 400 kts | 253° |
| 2026-05-07 11:12 | 47.22922 | 173.63656 | 35971 ft | 399 kts | 253° |
| 2026-05-07 11:13 | 47.20590 | 173.56244 | 35974 ft | 398 kts | 253° |
| 2026-05-07 11:13 | 47.18256 | 173.48848 | 35975 ft | 398 kts | 253° |
| 2026-05-07 11:14 | 47.15936 | 173.41518 | 35976 ft | 398 kts | 253° |
| 2026-05-07 11:14 | 47.13598 | 173.34153 | 35975 ft | 397 kts | 253° |
| 2026-05-07 11:15 | 47.11261 | 173.26809 | 35988 ft | 397 kts | 253° |
| 2026-05-07 11:15 | 47.08897 | 173.19489 | 35978 ft | 397 kts | 253° |
| 2026-05-07 11:16 | 47.06523 | 173.12180 | 35981 ft | 396 kts | 253° |
| 2026-05-07 11:16 | 47.04169 | 173.04885 | 35981 ft | 396 kts | 253° |
| 2026-05-07 11:17 | 47.01816 | 172.97585 | 35984 ft | 396 kts | 253° |
| 2026-05-07 11:17 | 46.99480 | 172.90352 | 35980 ft | 395 kts | 253° |
| 2026-05-07 11:18 | 46.97123 | 172.83073 | 35990 ft | 395 kts | 253° |
| 2026-05-07 11:18 | 46.94761 | 172.75799 | 35988 ft | 395 kts | 253° |
| 2026-05-07 11:19 | 46.92395 | 172.68536 | 35988 ft | 396 kts | 253° |
| 2026-05-07 11:19 | 46.90022 | 172.61270 | 35991 ft | 396 kts | 253° |
| 2026-05-07 11:20 | 46.87645 | 172.54011 | 35990 ft | 396 kts | 253° |
| 2026-05-07 11:20 | 46.85255 | 172.46736 | 35992 ft | 396 kts | 253° |
| 2026-05-07 11:21 | 46.82865 | 172.39480 | 35999 ft | 397 kts | 253° |
| 2026-05-07 11:21 | 46.80466 | 172.32217 | 35995 ft | 397 kts | 253° |
| 2026-05-07 11:22 | 46.78075 | 172.24998 | 35998 ft | 397 kts | 253° |
| 2026-05-07 11:22 | 46.75662 | 172.17736 | 36001 ft | 398 kts | 252° |
| 2026-05-07 11:23 | 46.73225 | 172.10487 | 35999 ft | 398 kts | 252° |
| 2026-05-07 11:23 | 46.70769 | 172.03242 | 36001 ft | 398 kts | 252° |
| 2026-05-07 11:24 | 46.68327 | 171.95993 | 36005 ft | 399 kts | 252° |
| 2026-05-07 11:24 | 46.65883 | 171.88725 | 36007 ft | 399 kts | 252° |
| 2026-05-07 11:25 | 46.63440 | 171.81472 | 36003 ft | 399 kts | 252° |
| 2026-05-07 11:25 | 46.61005 | 171.74266 | 36008 ft | 399 kts | 252° |
| 2026-05-07 11:26 | 46.58548 | 171.67014 | 36007 ft | 400 kts | 252° |
| 2026-05-07 11:26 | 46.56081 | 171.59749 | 36017 ft | 400 kts | 252° |
| 2026-05-07 11:27 | 46.53613 | 171.52505 | 36014 ft | 400 kts | 252° |
| 2026-05-07 11:27 | 46.51137 | 171.45256 | 36011 ft | 401 kts | 252° |
| 2026-05-07 11:28 | 46.48651 | 171.37998 | 36011 ft | 401 kts | 252° |
| 2026-05-07 11:28 | 46.46179 | 171.30800 | 36013 ft | 401 kts | 252° |
| 2026-05-07 11:29 | 46.43679 | 171.23543 | 36008 ft | 402 kts | 252° |
| 2026-05-07 11:29 | 46.41181 | 171.16310 | 36015 ft | 402 kts | 252° |
| 2026-05-07 11:30 | 46.38671 | 171.09063 | 36019 ft | 402 kts | 252° |
| 2026-05-07 11:30 | 46.36136 | 171.01834 | 36018 ft | 403 kts | 251° |
| 2026-05-07 11:31 | 46.33588 | 170.94615 | 36020 ft | 403 kts | 251° |
| 2026-05-07 11:31 | 46.31050 | 170.87383 | 36020 ft | 403 kts | 251° |
| 2026-05-07 11:32 | 46.27260 | 170.76573 | 36023 ft | 403 kts | 251° |
| 2026-05-07 11:33 | 46.24714 | 170.69332 | 36022 ft | 403 kts | 251° |
| 2026-05-07 11:33 | 46.22597 | 170.63325 | 36021 ft | 404 kts | 251° |
| 2026-05-07 11:34 | 46.20043 | 170.56095 | 36035 ft | 404 kts | 251° |
| 2026-05-07 11:34 | 46.17483 | 170.48870 | 36026 ft | 404 kts | 251° |
| 2026-05-07 11:35 | 46.14933 | 170.41694 | 36023 ft | 404 kts | 251° |
| 2026-05-07 11:35 | 46.12361 | 170.34474 | 36025 ft | 405 kts | 251° |
| 2026-05-07 11:36 | 46.09786 | 170.27264 | 36028 ft | 405 kts | 251° |
| 2026-05-07 11:36 | 46.07198 | 170.20037 | 36028 ft | 405 kts | 251° |
| 2026-05-07 11:37 | 46.04609 | 170.12829 | 36032 ft | 405 kts | 251° |
| 2026-05-07 11:37 | 46.02013 | 170.05621 | 36035 ft | 406 kts | 251° |
| 2026-05-07 11:38 | 45.99561 | 169.98341 | 36033 ft | 400 kts | 255° |
| 2026-05-07 11:38 | 45.97662 | 169.90901 | 36035 ft | 398 kts | 258° |
| 2026-05-07 11:39 | 45.95872 | 169.83382 | 36038 ft | 398 kts | 258° |
| 2026-05-07 11:39 | 45.94065 | 169.75859 | 36037 ft | 398 kts | 258° |
| 2026-05-07 11:40 | 45.92240 | 169.68352 | 36036 ft | 398 kts | 258° |
| 2026-05-07 11:40 | 45.90405 | 169.60845 | 36037 ft | 398 kts | 258° |
| 2026-05-07 11:41 | 45.88563 | 169.53345 | 36043 ft | 398 kts | 258° |
| 2026-05-07 11:41 | 45.86717 | 169.45849 | 36039 ft | 399 kts | 257° |
| 2026-05-07 11:42 | 45.84863 | 169.38349 | 36041 ft | 399 kts | 257° |
| 2026-05-07 11:42 | 45.83018 | 169.30907 | 36038 ft | 399 kts | 257° |
| 2026-05-07 11:43 | 45.81155 | 169.23418 | 36038 ft | 399 kts | 257° |
| 2026-05-07 11:43 | 45.79285 | 169.15929 | 36040 ft | 399 kts | 257° |
| 2026-05-07 11:44 | 45.77412 | 169.08449 | 36045 ft | 399 kts | 257° |
| 2026-05-07 11:44 | 45.75531 | 169.00959 | 36041 ft | 399 kts | 257° |
| 2026-05-07 11:45 | 45.73647 | 168.93485 | 36042 ft | 399 kts | 257° |
| 2026-05-07 11:45 | 45.71746 | 168.86022 | 36043 ft | 399 kts | 257° |
| 2026-05-07 11:46 | 45.69817 | 168.78569 | 36048 ft | 399 kts | 257° |
| 2026-05-07 11:46 | 45.67902 | 168.71112 | 36047 ft | 399 kts | 257° |
| 2026-05-07 11:47 | 45.66008 | 168.63709 | 36051 ft | 399 kts | 257° |
| 2026-05-07 11:47 | 45.64100 | 168.56264 | 36055 ft | 399 kts | 257° |
| 2026-05-07 11:48 | 45.62184 | 168.48807 | 36047 ft | 399 kts | 257° |
| 2026-05-07 11:48 | 45.60264 | 168.41361 | 36047 ft | 399 kts | 257° |
| 2026-05-07 11:49 | 45.58337 | 168.33915 | 36049 ft | 399 kts | 257° |
| 2026-05-07 11:49 | 45.56409 | 168.26482 | 36046 ft | 399 kts | 257° |
| 2026-05-07 11:50 | 45.54472 | 168.19046 | 36051 ft | 400 kts | 257° |
| 2026-05-07 11:50 | 45.52545 | 168.11666 | 36054 ft | 400 kts | 257° |
| 2026-05-07 11:51 | 45.50598 | 168.04237 | 36051 ft | 400 kts | 257° |
| 2026-05-07 11:51 | 45.48646 | 167.96809 | 36056 ft | 400 kts | 257° |
| 2026-05-07 11:52 | 45.46687 | 167.89382 | 36051 ft | 400 kts | 257° |
| 2026-05-07 11:52 | 45.44736 | 167.82004 | 36050 ft | 400 kts | 256° |
| 2026-05-07 11:53 | 45.42757 | 167.74600 | 36050 ft | 400 kts | 256° |
| 2026-05-07 11:53 | 45.40749 | 167.67195 | 36052 ft | 400 kts | 256° |
| 2026-05-07 11:54 | 45.38754 | 167.59783 | 36054 ft | 400 kts | 256° |
| 2026-05-07 11:54 | 45.36765 | 167.52369 | 36054 ft | 400 kts | 256° |
| 2026-05-07 11:55 | 45.34789 | 167.45018 | 36053 ft | 401 kts | 256° |
| 2026-05-07 11:55 | 45.32793 | 167.37611 | 36052 ft | 401 kts | 256° |
| 2026-05-07 11:56 | 45.30793 | 167.30212 | 36054 ft | 401 kts | 256° |
| 2026-05-07 11:56 | 45.28787 | 167.22816 | 36057 ft | 401 kts | 256° |
| 2026-05-07 11:57 | 45.26778 | 167.15430 | 36055 ft | 401 kts | 256° |
| 2026-05-07 11:57 | 45.24762 | 167.08041 | 36052 ft | 401 kts | 256° |
| 2026-05-07 11:58 | 45.22740 | 167.00657 | 36054 ft | 402 kts | 256° |
| 2026-05-07 11:58 | 45.20723 | 166.93308 | 36066 ft | 402 kts | 256° |
| 2026-05-07 11:59 | 45.18687 | 166.85916 | 36059 ft | 402 kts | 256° |
| 2026-05-07 11:59 | 45.16656 | 166.78563 | 36053 ft | 402 kts | 256° |
| 2026-05-07 12:00 | 45.14610 | 166.71182 | 36062 ft | 403 kts | 256° |
| 2026-05-07 12:00 | 45.12538 | 166.63791 | 36056 ft | 403 kts | 255° |
| 2026-05-07 12:01 | 45.10449 | 166.56423 | 36058 ft | 403 kts | 255° |
| 2026-05-07 12:01 | 45.08372 | 166.49048 | 36060 ft | 403 kts | 256° |
| 2026-05-07 12:02 | 45.06299 | 166.41669 | 36060 ft | 404 kts | 255° |
| 2026-05-07 12:02 | 45.04236 | 166.34334 | 36059 ft | 404 kts | 255° |
| 2026-05-07 12:03 | 45.02148 | 166.26936 | 36057 ft | 404 kts | 255° |
| 2026-05-07 12:03 | 45.00058 | 166.19551 | 36056 ft | 404 kts | 255° |
| 2026-05-07 12:04 | 44.97975 | 166.12215 | 36057 ft | 405 kts | 255° |
| 2026-05-07 12:04 | 44.95874 | 166.04836 | 36060 ft | 405 kts | 255° |
| 2026-05-07 12:05 | 44.93767 | 165.97458 | 36062 ft | 405 kts | 255° |
| 2026-05-07 12:05 | 44.91651 | 165.90072 | 36062 ft | 405 kts | 255° |
| 2026-05-07 12:06 | 44.89534 | 165.82704 | 36062 ft | 405 kts | 255° |
| 2026-05-07 12:06 | 44.87412 | 165.75341 | 36063 ft | 405 kts | 255° |
| 2026-05-07 12:07 | 44.85282 | 165.67973 | 36062 ft | 406 kts | 255° |
| 2026-05-07 12:07 | 44.83163 | 165.60661 | 36061 ft | 406 kts | 255° |
| 2026-05-07 12:08 | 44.80998 | 165.53307 | 36062 ft | 406 kts | 255° |
| 2026-05-07 12:08 | 44.78824 | 165.45957 | 36063 ft | 406 kts | 255° |
| 2026-05-07 12:09 | 44.76658 | 165.38590 | 36069 ft | 406 kts | 255° |
| 2026-05-07 12:09 | 44.74504 | 165.31253 | 36064 ft | 406 kts | 255° |
| 2026-05-07 12:10 | 44.72347 | 165.23923 | 36064 ft | 405 kts | 255° |
| 2026-05-07 12:10 | 44.70186 | 165.16598 | 36065 ft | 406 kts | 255° |
| 2026-05-07 12:11 | 44.68019 | 165.09271 | 36072 ft | 406 kts | 255° |
| 2026-05-07 12:11 | 44.65864 | 165.02010 | 36069 ft | 406 kts | 255° |
| 2026-05-07 12:12 | 44.63686 | 164.94694 | 36070 ft | 406 kts | 255° |
| 2026-05-07 12:12 | 44.61505 | 164.87389 | 36073 ft | 406 kts | 255° |
| 2026-05-07 12:13 | 44.59320 | 164.80089 | 36070 ft | 406 kts | 255° |
| 2026-05-07 12:13 | 44.57128 | 164.72790 | 36068 ft | 406 kts | 255° |
| 2026-05-07 12:14 | 44.54946 | 164.65545 | 36080 ft | 405 kts | 255° |
| 2026-05-07 12:14 | 44.52747 | 164.58263 | 36077 ft | 405 kts | 255° |
| 2026-05-07 12:15 | 44.50543 | 164.50989 | 36075 ft | 406 kts | 255° |
| 2026-05-07 12:15 | 44.48298 | 164.43712 | 36076 ft | 406 kts | 255° |
| 2026-05-07 12:16 | 44.46076 | 164.36498 | 36078 ft | 406 kts | 255° |
| 2026-05-07 12:16 | 44.43853 | 164.29245 | 36074 ft | 406 kts | 255° |
| 2026-05-07 12:17 | 44.41626 | 164.21975 | 36077 ft | 406 kts | 255° |
| 2026-05-07 12:17 | 44.39397 | 164.14721 | 36076 ft | 406 kts | 255° |
| 2026-05-07 12:18 | 44.37163 | 164.07468 | 36080 ft | 406 kts | 255° |
| 2026-05-07 12:18 | 44.34940 | 164.00272 | 36081 ft | 406 kts | 255° |
| 2026-05-07 12:19 | 44.32695 | 163.93022 | 36079 ft | 406 kts | 255° |
| 2026-05-07 12:19 | 44.30447 | 163.85788 | 36080 ft | 406 kts | 255° |
| 2026-05-07 12:20 | 44.28193 | 163.78553 | 36086 ft | 406 kts | 255° |
| 2026-05-07 12:20 | 44.25928 | 163.71304 | 36085 ft | 406 kts | 255° |
| 2026-05-07 12:21 | 44.23679 | 163.64124 | 36083 ft | 407 kts | 255° |
| 2026-05-07 12:21 | 44.21408 | 163.56897 | 36077 ft | 407 kts | 255° |
| 2026-05-07 12:22 | 44.19135 | 163.49681 | 36076 ft | 407 kts | 255° |
| 2026-05-07 12:22 | 44.16845 | 163.42456 | 36086 ft | 407 kts | 255° |
| 2026-05-07 12:23 | 44.14526 | 163.35252 | 36089 ft | 408 kts | 255° |
| 2026-05-07 12:23 | 44.12217 | 163.28044 | 36074 ft | 408 kts | 255° |
| 2026-05-07 12:24 | 44.09916 | 163.20837 | 36087 ft | 407 kts | 255° |
| 2026-05-07 12:24 | 44.08004 | 163.14850 | 36087 ft | 407 kts | 255° |
| 2026-05-07 12:25 | 44.05693 | 163.07631 | 36088 ft | 408 kts | 255° |
| 2026-05-07 12:25 | 44.03380 | 163.00426 | 36089 ft | 408 kts | 255° |
| 2026-05-07 12:26 | 44.01081 | 162.93285 | 36086 ft | 408 kts | 255° |
| 2026-05-07 12:26 | 43.98758 | 162.86091 | 36085 ft | 408 kts | 255° |
| 2026-05-07 12:27 | 43.96432 | 162.78905 | 36085 ft | 408 kts | 254° |
| 2026-05-07 12:27 | 43.94105 | 162.71735 | 36089 ft | 408 kts | 254° |
| 2026-05-07 12:28 | 43.91772 | 162.64569 | 36088 ft | 407 kts | 254° |
| 2026-05-07 12:28 | 43.89437 | 162.57412 | 36090 ft | 407 kts | 254° |
| 2026-05-07 12:29 | 43.87093 | 162.50249 | 36089 ft | 407 kts | 254° |
| 2026-05-07 12:29 | 43.84747 | 162.43099 | 36089 ft | 407 kts | 254° |
| 2026-05-07 12:30 | 43.82388 | 162.35970 | 36086 ft | 407 kts | 254° |
| 2026-05-07 12:30 | 43.80021 | 162.28901 | 36088 ft | 407 kts | 254° |
| 2026-05-07 12:31 | 43.77656 | 162.21797 | 36091 ft | 406 kts | 254° |
| 2026-05-07 12:31 | 43.75296 | 162.14691 | 36089 ft | 406 kts | 254° |
| 2026-05-07 12:32 | 43.72934 | 162.07590 | 36088 ft | 405 kts | 254° |
| 2026-05-07 12:32 | 43.70577 | 162.00518 | 36091 ft | 405 kts | 254° |
| 2026-05-07 12:33 | 43.67045 | 161.89962 | 36095 ft | 404 kts | 254° |
| 2026-05-07 12:33 | 43.64679 | 161.82909 | 36092 ft | 404 kts | 254° |
| 2026-05-07 12:34 | 43.62308 | 161.75863 | 36088 ft | 404 kts | 254° |
| 2026-05-07 12:34 | 43.59940 | 161.68847 | 36094 ft | 403 kts | 254° |
| 2026-05-07 12:35 | 43.57571 | 161.61842 | 36090 ft | 403 kts | 254° |
| 2026-05-07 12:35 | 43.55197 | 161.54843 | 36092 ft | 402 kts | 254° |
| 2026-05-07 12:36 | 43.52822 | 161.47856 | 36091 ft | 402 kts | 254° |
| 2026-05-07 12:36 | 43.50457 | 161.40918 | 36090 ft | 402 kts | 254° |
| 2026-05-07 12:37 | 43.48072 | 161.33953 | 36093 ft | 402 kts | 253° |
| 2026-05-07 12:37 | 43.45657 | 161.27008 | 36092 ft | 402 kts | 253° |
| 2026-05-07 12:38 | 43.43254 | 161.20073 | 36092 ft | 401 kts | 253° |
| 2026-05-07 12:38 | 43.40862 | 161.13144 | 36092 ft | 401 kts | 253° |
| 2026-05-07 12:39 | 43.38471 | 161.06224 | 36091 ft | 400 kts | 253° |
| 2026-05-07 12:39 | 43.36078 | 160.99310 | 36099 ft | 400 kts | 253° |
| 2026-05-07 12:40 | 43.33700 | 160.92456 | 36094 ft | 400 kts | 253° |
| 2026-05-07 12:40 | 43.31301 | 160.85560 | 36096 ft | 399 kts | 253° |
| 2026-05-07 12:41 | 43.28901 | 160.78680 | 36094 ft | 399 kts | 253° |
| 2026-05-07 12:41 | 43.26500 | 160.71814 | 36099 ft | 399 kts | 253° |
| 2026-05-07 12:42 | 43.24093 | 160.64948 | 36095 ft | 399 kts | 253° |
| 2026-05-07 12:42 | 43.21701 | 160.58142 | 36095 ft | 399 kts | 253° |
| 2026-05-07 12:43 | 43.19103 | 160.51383 | 36097 ft | 402 kts | 250° |
| 2026-05-07 12:43 | 43.16374 | 160.44700 | 36098 ft | 402 kts | 250° |
| 2026-05-07 12:44 | 43.13647 | 160.38019 | 36098 ft | 401 kts | 250° |
| 2026-05-07 12:44 | 43.10927 | 160.31331 | 36099 ft | 401 kts | 250° |
| 2026-05-07 12:45 | 43.08213 | 160.24658 | 36101 ft | 401 kts | 250° |
| 2026-05-07 12:45 | 43.05495 | 160.17989 | 36104 ft | 401 kts | 250° |
| 2026-05-07 12:46 | 43.02775 | 160.11331 | 36105 ft | 401 kts | 250° |
| 2026-05-07 12:46 | 43.00050 | 160.04676 | 36104 ft | 401 kts | 250° |
| 2026-05-07 12:47 | 42.97340 | 159.98070 | 36098 ft | 401 kts | 250° |
| 2026-05-07 12:47 | 42.94608 | 159.91429 | 36101 ft | 401 kts | 250° |
| 2026-05-07 12:48 | 42.91867 | 159.84781 | 36115 ft | 402 kts | 250° |
| 2026-05-07 12:48 | 42.89123 | 159.78140 | 36105 ft | 402 kts | 249° |
| 2026-05-07 12:49 | 42.86389 | 159.71539 | 36106 ft | 402 kts | 249° |
| 2026-05-07 12:49 | 42.83634 | 159.64905 | 36108 ft | 402 kts | 249° |
| 2026-05-07 12:50 | 42.80873 | 159.58270 | 36108 ft | 403 kts | 249° |
| 2026-05-07 12:50 | 42.78078 | 159.51644 | 36108 ft | 403 kts | 249° |
| 2026-05-07 12:51 | 42.75281 | 159.45012 | 36108 ft | 404 kts | 249° |
| 2026-05-07 12:51 | 42.72497 | 159.38383 | 36105 ft | 404 kts | 249° |
| 2026-05-07 12:52 | 42.69709 | 159.31747 | 36111 ft | 404 kts | 249° |
| 2026-05-07 12:52 | 42.66918 | 159.25115 | 36112 ft | 404 kts | 249° |
| 2026-05-07 12:53 | 42.64121 | 159.18486 | 36111 ft | 404 kts | 249° |
| 2026-05-07 12:53 | 42.61338 | 159.11902 | 36112 ft | 405 kts | 249° |
| 2026-05-07 12:54 | 42.58528 | 159.05271 | 36116 ft | 405 kts | 249° |
| 2026-05-07 12:54 | 42.55715 | 158.98648 | 36116 ft | 405 kts | 249° |
| 2026-05-07 12:55 | 42.52899 | 158.92034 | 36113 ft | 405 kts | 249° |
| 2026-05-07 12:55 | 42.50077 | 158.85419 | 36110 ft | 405 kts | 249° |
| 2026-05-07 12:56 | 42.47269 | 158.78853 | 36111 ft | 405 kts | 249° |
| 2026-05-07 12:56 | 42.44439 | 158.72249 | 36112 ft | 405 kts | 249° |
| 2026-05-07 12:57 | 42.41607 | 158.65655 | 36116 ft | 405 kts | 249° |
| 2026-05-07 12:57 | 42.38770 | 158.59077 | 36117 ft | 405 kts | 248° |
| 2026-05-07 12:58 | 42.35906 | 158.52520 | 36115 ft | 405 kts | 248° |
| 2026-05-07 12:58 | 42.34474 | 158.49232 | 36312 ft | 406 kts | 248° |
| 2026-05-07 12:58 | 42.33044 | 158.45944 | 36759 ft | 404 kts | 248° |
| 2026-05-07 12:59 | 42.31639 | 158.42714 | 37216 ft | 403 kts | 248° |
| 2026-05-07 12:59 | 42.30227 | 158.39464 | 37678 ft | 400 kts | 249° |
| 2026-05-07 12:59 | 42.28819 | 158.36225 | 38124 ft | 399 kts | 249° |
| 2026-05-07 12:59 | 42.27420 | 158.33007 | 38559 ft | 397 kts | 249° |
| 2026-05-07 13:00 | 42.26024 | 158.29800 | 38937 ft | 395 kts | 249° |
| 2026-05-07 13:00 | 42.24635 | 158.26609 | 39279 ft | 393 kts | 248° |
| 2026-05-07 13:00 | 42.23253 | 158.23440 | 39620 ft | 391 kts | 248° |
| 2026-05-07 13:00 | 42.21877 | 158.20288 | 39950 ft | 390 kts | 248° |
| 2026-05-07 13:01 | 42.20496 | 158.17120 | 40089 ft | 393 kts | 248° |
| 2026-05-07 13:01 | 42.19102 | 158.13921 | 40110 ft | 397 kts | 248° |
| 2026-05-07 13:01 | 42.16290 | 158.07500 | 40125 ft | 398 kts | 248° |
| 2026-05-07 13:02 | 42.13469 | 158.01080 | 40118 ft | 398 kts | 247° |
| 2026-05-07 13:02 | 42.10661 | 157.94702 | 40127 ft | 398 kts | 247° |
| 2026-05-07 13:03 | 42.07834 | 157.88291 | 40111 ft | 398 kts | 247° |
| 2026-05-07 13:03 | 42.05004 | 157.81887 | 40116 ft | 398 kts | 247° |
| 2026-05-07 13:04 | 42.02171 | 157.75490 | 40117 ft | 398 kts | 247° |
| 2026-05-07 13:04 | 41.99333 | 157.69095 | 40117 ft | 398 kts | 247° |
| 2026-05-07 13:05 | 41.96489 | 157.62710 | 40118 ft | 398 kts | 246° |
| 2026-05-07 13:05 | 41.93639 | 157.56389 | 40118 ft | 398 kts | 246° |
| 2026-05-07 13:06 | 41.90776 | 157.50026 | 40115 ft | 398 kts | 246° |
| 2026-05-07 13:06 | 41.87921 | 157.43658 | 40112 ft | 398 kts | 246° |
| 2026-05-07 13:07 | 41.85065 | 157.37294 | 40115 ft | 398 kts | 246° |
| 2026-05-07 13:07 | 41.82208 | 157.30939 | 40115 ft | 398 kts | 246° |
| 2026-05-07 13:08 | 41.79415 | 157.24739 | 40112 ft | 398 kts | 246° |
| 2026-05-07 13:08 | 41.76548 | 157.18387 | 40115 ft | 398 kts | 246° |
| 2026-05-07 13:09 | 41.73677 | 157.12040 | 40119 ft | 398 kts | 246° |
| 2026-05-07 13:09 | 41.70803 | 157.05703 | 40114 ft | 398 kts | 246° |
| 2026-05-07 13:10 | 41.67927 | 156.99371 | 40117 ft | 398 kts | 246° |
| 2026-05-07 13:10 | 41.65060 | 156.93074 | 40118 ft | 398 kts | 246° |
| 2026-05-07 13:11 | 41.62172 | 156.86745 | 40119 ft | 399 kts | 246° |
| 2026-05-07 13:11 | 41.59276 | 156.80410 | 40113 ft | 399 kts | 245° |
| 2026-05-07 13:12 | 41.56380 | 156.74089 | 40118 ft | 399 kts | 245° |
| 2026-05-07 13:12 | 41.53968 | 156.68834 | 40117 ft | 399 kts | 245° |
| 2026-05-07 13:13 | 41.50565 | 156.61513 | 40125 ft | 399 kts | 245° |
| 2026-05-07 13:13 | 41.47640 | 156.55211 | 40113 ft | 399 kts | 245° |
| 2026-05-07 13:14 | 41.45212 | 156.49966 | 40114 ft | 400 kts | 245° |
| 2026-05-07 13:14 | 41.42291 | 156.43659 | 40115 ft | 400 kts | 245° |
| 2026-05-07 13:15 | 41.39372 | 156.37363 | 40117 ft | 400 kts | 245° |
| 2026-05-07 13:15 | 41.36443 | 156.31062 | 40118 ft | 400 kts | 245° |
| 2026-05-07 13:16 | 41.33517 | 156.24778 | 40119 ft | 400 kts | 245° |
| 2026-05-07 13:16 | 41.30577 | 156.18480 | 40119 ft | 400 kts | 245° |
| 2026-05-07 13:17 | 41.27660 | 156.12240 | 40116 ft | 400 kts | 245° |
| 2026-05-07 13:17 | 41.24720 | 156.05967 | 40118 ft | 400 kts | 245° |
| 2026-05-07 13:18 | 41.21796 | 155.99741 | 40115 ft | 400 kts | 244° |
| 2026-05-07 13:18 | 41.18912 | 155.93611 | 40118 ft | 400 kts | 244° |
| 2026-05-07 13:19 | 41.15962 | 155.87355 | 40115 ft | 400 kts | 244° |
| 2026-05-07 13:19 | 41.13012 | 155.81109 | 40115 ft | 400 kts | 244° |
| 2026-05-07 13:20 | 41.10056 | 155.74866 | 40117 ft | 399 kts | 244° |
| 2026-05-07 13:20 | 41.07074 | 155.68641 | 40120 ft | 400 kts | 244° |
| 2026-05-07 13:21 | 41.04115 | 155.62466 | 40116 ft | 399 kts | 244° |
| 2026-05-07 13:21 | 41.01146 | 155.56248 | 40113 ft | 399 kts | 244° |
| 2026-05-07 13:22 | 40.98180 | 155.50036 | 40115 ft | 399 kts | 244° |
| 2026-05-07 13:22 | 40.95211 | 155.43829 | 40117 ft | 399 kts | 244° |
| 2026-05-07 13:23 | 40.92239 | 155.37627 | 40118 ft | 399 kts | 244° |
| 2026-05-07 13:23 | 40.89266 | 155.31436 | 40117 ft | 399 kts | 243° |
| 2026-05-07 13:24 | 40.86285 | 155.25242 | 40118 ft | 399 kts | 243° |
| 2026-05-07 13:24 | 40.83305 | 155.19060 | 40113 ft | 399 kts | 243° |
| 2026-05-07 13:25 | 40.80340 | 155.12924 | 40117 ft | 399 kts | 243° |
| 2026-05-07 13:25 | 40.77353 | 155.06751 | 40119 ft | 399 kts | 243° |
| 2026-05-07 13:26 | 40.74367 | 155.00596 | 40114 ft | 398 kts | 243° |
| 2026-05-07 13:26 | 40.71375 | 154.94440 | 40113 ft | 398 kts | 243° |
| 2026-05-07 13:27 | 40.68378 | 154.88286 | 40115 ft | 398 kts | 243° |
| 2026-05-07 13:27 | 40.65381 | 154.82145 | 40115 ft | 398 kts | 243° |
| 2026-05-07 13:28 | 40.62361 | 154.76026 | 40113 ft | 398 kts | 242° |
| 2026-05-07 13:28 | 40.59360 | 154.69948 | 40112 ft | 398 kts | 242° |
| 2026-05-07 13:29 | 40.56346 | 154.63823 | 40115 ft | 398 kts | 242° |
| 2026-05-07 13:29 | 40.53332 | 154.57697 | 40116 ft | 399 kts | 242° |
| 2026-05-07 13:30 | 40.50313 | 154.51572 | 40111 ft | 399 kts | 242° |
| 2026-05-07 13:30 | 40.47293 | 154.45457 | 40111 ft | 399 kts | 242° |
| 2026-05-07 13:31 | 40.44263 | 154.39333 | 40108 ft | 399 kts | 242° |
| 2026-05-07 13:31 | 40.41233 | 154.33220 | 40108 ft | 400 kts | 242° |
| 2026-05-07 13:32 | 40.38194 | 154.27103 | 40108 ft | 400 kts | 242° |
| 2026-05-07 13:32 | 40.35165 | 154.21018 | 40112 ft | 400 kts | 242° |
| 2026-05-07 13:33 | 40.32119 | 154.14909 | 40110 ft | 400 kts | 242° |
| 2026-05-07 13:33 | 40.29066 | 154.08800 | 40109 ft | 401 kts | 242° |
| 2026-05-07 13:34 | 40.24475 | 153.99634 | 40104 ft | 401 kts | 241° |
| 2026-05-07 13:35 | 40.21413 | 153.93536 | 40111 ft | 401 kts | 241° |
| 2026-05-07 13:35 | 40.18338 | 153.87449 | 40110 ft | 401 kts | 241° |
| 2026-05-07 13:36 | 40.15243 | 153.81370 | 40108 ft | 401 kts | 241° |
| 2026-05-07 13:36 | 40.12178 | 153.75328 | 40106 ft | 401 kts | 241° |
| 2026-05-07 13:37 | 40.09094 | 153.69241 | 40107 ft | 401 kts | 241° |
| 2026-05-07 13:37 | 40.06010 | 153.63159 | 40111 ft | 401 kts | 241° |
| 2026-05-07 13:38 | 40.02923 | 153.57082 | 40103 ft | 401 kts | 241° |
| 2026-05-07 13:38 | 39.99836 | 153.51018 | 40101 ft | 402 kts | 241° |
| 2026-05-07 13:39 | 39.96740 | 153.44948 | 40096 ft | 402 kts | 241° |
| 2026-05-07 13:39 | 39.93641 | 153.38883 | 40093 ft | 402 kts | 241° |
| 2026-05-07 13:40 | 39.90561 | 153.32867 | 40102 ft | 401 kts | 241° |
| 2026-05-07 13:40 | 39.87456 | 153.26815 | 40099 ft | 401 kts | 241° |
| 2026-05-07 13:41 | 39.84351 | 153.20772 | 40098 ft | 402 kts | 241° |
| 2026-05-07 13:41 | 39.81242 | 153.14735 | 40095 ft | 402 kts | 240° |
| 2026-05-07 13:42 | 39.78130 | 153.08702 | 40098 ft | 402 kts | 240° |
| 2026-05-07 13:42 | 39.75006 | 153.02660 | 40096 ft | 402 kts | 240° |
| 2026-05-07 13:43 | 39.71872 | 152.96637 | 40095 ft | 403 kts | 240° |
| 2026-05-07 13:43 | 39.68717 | 152.90614 | 40095 ft | 403 kts | 240° |
| 2026-05-07 13:44 | 39.65570 | 152.84583 | 40096 ft | 403 kts | 240° |
| 2026-05-07 13:44 | 39.62422 | 152.78544 | 40091 ft | 404 kts | 240° |
| 2026-05-07 13:45 | 39.59293 | 152.72548 | 40092 ft | 404 kts | 240° |
| 2026-05-07 13:45 | 39.56133 | 152.66506 | 40091 ft | 405 kts | 240° |
| 2026-05-07 13:46 | 39.52962 | 152.60453 | 40089 ft | 405 kts | 240° |
| 2026-05-07 13:46 | 39.49792 | 152.54413 | 40090 ft | 406 kts | 240° |
| 2026-05-07 13:47 | 39.46613 | 152.48368 | 40089 ft | 406 kts | 240° |
| 2026-05-07 13:47 | 39.43424 | 152.42317 | 40088 ft | 407 kts | 240° |
| 2026-05-07 13:48 | 39.40282 | 152.36364 | 40083 ft | 407 kts | 240° |
| 2026-05-07 13:48 | 39.37064 | 152.30279 | 40093 ft | 407 kts | 240° |
| 2026-05-07 13:49 | 39.33882 | 152.24275 | 40081 ft | 407 kts | 239° |
| 2026-05-07 13:49 | 39.30673 | 152.18230 | 40090 ft | 408 kts | 239° |
| 2026-05-07 13:50 | 39.27459 | 152.12188 | 40082 ft | 408 kts | 239° |
| 2026-05-07 13:50 | 39.24227 | 152.06166 | 40088 ft | 408 kts | 239° |
| 2026-05-07 13:51 | 39.20988 | 152.00147 | 40077 ft | 408 kts | 239° |
| 2026-05-07 13:51 | 39.17758 | 151.94125 | 40079 ft | 408 kts | 239° |
| 2026-05-07 13:52 | 39.14529 | 151.88102 | 40080 ft | 408 kts | 239° |
| 2026-05-07 13:52 | 39.11318 | 151.82121 | 40082 ft | 408 kts | 239° |
| 2026-05-07 13:53 | 39.08084 | 151.76109 | 40077 ft | 409 kts | 239° |
| 2026-05-07 13:53 | 39.04845 | 151.70100 | 40077 ft | 409 kts | 239° |
| 2026-05-07 13:54 | 39.01598 | 151.64088 | 40077 ft | 409 kts | 239° |
| 2026-05-07 13:54 | 38.98356 | 151.58095 | 40072 ft | 408 kts | 239° |
| 2026-05-07 13:55 | 38.95103 | 151.52094 | 40071 ft | 408 kts | 239° |
| 2026-05-07 13:55 | 38.91854 | 151.46111 | 40075 ft | 408 kts | 238° |
| 2026-05-07 13:56 | 38.88601 | 151.40131 | 40072 ft | 408 kts | 238° |
| 2026-05-07 13:56 | 38.85370 | 151.34202 | 40069 ft | 408 kts | 238° |
| 2026-05-07 13:57 | 38.82114 | 151.28240 | 40067 ft | 408 kts | 238° |
| 2026-05-07 13:57 | 38.78856 | 151.22289 | 40064 ft | 408 kts | 238° |
| 2026-05-07 13:58 | 38.75572 | 151.16353 | 40065 ft | 407 kts | 238° |
| 2026-05-07 13:58 | 38.72298 | 151.10425 | 40063 ft | 407 kts | 238° |
| 2026-05-07 13:59 | 38.69036 | 151.04504 | 40061 ft | 407 kts | 238° |
| 2026-05-07 13:59 | 38.65794 | 150.98622 | 40058 ft | 406 kts | 238° |
| 2026-05-07 14:00 | 38.62536 | 150.92721 | 40060 ft | 406 kts | 238° |
| 2026-05-07 14:00 | 38.59280 | 150.86833 | 40057 ft | 406 kts | 238° |
| 2026-05-07 14:01 | 38.56569 | 150.81941 | 40055 ft | 405 kts | 238° |
| 2026-05-07 14:01 | 38.53307 | 150.76062 | 40055 ft | 405 kts | 238° |
| 2026-05-07 14:02 | 38.50038 | 150.70182 | 40052 ft | 406 kts | 238° |
| 2026-05-07 14:02 | 38.46765 | 150.64306 | 40049 ft | 406 kts | 238° |
| 2026-05-07 14:03 | 38.43486 | 150.58430 | 40047 ft | 406 kts | 238° |
| 2026-05-07 14:03 | 38.40230 | 150.52606 | 40045 ft | 406 kts | 238° |
| 2026-05-07 14:04 | 38.36950 | 150.46749 | 40042 ft | 406 kts | 238° |
| 2026-05-07 14:04 | 38.33665 | 150.40892 | 40041 ft | 406 kts | 238° |
| 2026-05-07 14:05 | 38.30367 | 150.35033 | 40041 ft | 406 kts | 238° |
| 2026-05-07 14:05 | 38.27051 | 150.29197 | 40038 ft | 407 kts | 238° |
| 2026-05-07 14:06 | 38.23739 | 150.23355 | 40038 ft | 406 kts | 238° |
| 2026-05-07 14:06 | 38.20437 | 150.17520 | 40038 ft | 406 kts | 238° |
| 2026-05-07 14:07 | 38.17158 | 150.11726 | 40038 ft | 406 kts | 238° |
| 2026-05-07 14:07 | 38.13852 | 150.05898 | 40040 ft | 406 kts | 238° |
| 2026-05-07 14:08 | 38.10603 | 150.00030 | 40037 ft | 404 kts | 241° |
| 2026-05-07 14:08 | 38.07910 | 149.93786 | 40035 ft | 402 kts | 245° |
| 2026-05-07 14:09 | 38.05401 | 149.87438 | 40037 ft | 402 kts | 245° |
| 2026-05-07 14:09 | 38.02881 | 149.81102 | 40031 ft | 402 kts | 245° |
| 2026-05-07 14:10 | 38.00336 | 149.74770 | 40033 ft | 403 kts | 245° |
| 2026-05-07 14:10 | 37.97799 | 149.68493 | 40032 ft | 403 kts | 245° |
| 2026-05-07 14:11 | 37.95239 | 149.62177 | 40029 ft | 403 kts | 245° |
| 2026-05-07 14:11 | 37.92674 | 149.55863 | 40029 ft | 403 kts | 245° |
| 2026-05-07 14:12 | 37.90106 | 149.49550 | 40026 ft | 403 kts | 245° |
| 2026-05-07 14:12 | 37.87533 | 149.43240 | 40030 ft | 403 kts | 245° |
| 2026-05-07 14:13 | 37.84971 | 149.36970 | 40023 ft | 403 kts | 245° |
| 2026-05-07 14:13 | 37.82392 | 149.30669 | 40024 ft | 403 kts | 245° |
| 2026-05-07 14:14 | 37.79807 | 149.24367 | 40023 ft | 403 kts | 245° |
| 2026-05-07 14:14 | 37.77227 | 149.18091 | 40021 ft | 402 kts | 245° |
| 2026-05-07 14:15 | 37.74660 | 149.11858 | 40021 ft | 402 kts | 244° |
| 2026-05-07 14:15 | 37.72066 | 149.05589 | 40023 ft | 402 kts | 244° |
| 2026-05-07 14:16 | 37.69455 | 148.99346 | 40022 ft | 402 kts | 244° |
| 2026-05-07 14:16 | 37.66857 | 148.93107 | 40022 ft | 402 kts | 244° |
| 2026-05-07 14:17 | 37.64261 | 148.86863 | 40019 ft | 401 kts | 244° |
| 2026-05-07 14:17 | 37.61668 | 148.80628 | 40017 ft | 401 kts | 244° |
| 2026-05-07 14:18 | 37.59069 | 148.74392 | 40016 ft | 401 kts | 244° |
| 2026-05-07 14:18 | 37.56472 | 148.68172 | 40016 ft | 401 kts | 244° |
| 2026-05-07 14:19 | 37.53873 | 148.61960 | 40013 ft | 401 kts | 244° |
| 2026-05-07 14:19 | 37.51269 | 148.55749 | 40017 ft | 400 kts | 244° |
| 2026-05-07 14:20 | 37.48683 | 148.49592 | 40018 ft | 400 kts | 244° |
| 2026-05-07 14:20 | 37.46077 | 148.43399 | 40017 ft | 400 kts | 243° |
| 2026-05-07 14:21 | 37.43473 | 148.37223 | 40016 ft | 399 kts | 243° |
| 2026-05-07 14:21 | 37.40865 | 148.31052 | 40016 ft | 399 kts | 243° |
| 2026-05-07 14:22 | 37.38258 | 148.24893 | 40014 ft | 399 kts | 243° |
| 2026-05-07 14:22 | 37.35647 | 148.18737 | 40017 ft | 399 kts | 243° |
| 2026-05-07 14:23 | 37.33030 | 148.12598 | 40005 ft | 398 kts | 243° |
| 2026-05-07 14:23 | 37.30393 | 148.06471 | 40009 ft | 398 kts | 243° |
| 2026-05-07 14:24 | 37.27767 | 148.00346 | 40008 ft | 397 kts | 243° |
| 2026-05-07 14:24 | 37.25167 | 147.94270 | 40009 ft | 397 kts | 243° |
| 2026-05-07 14:25 | 37.22554 | 147.88168 | 40014 ft | 396 kts | 243° |
| 2026-05-07 14:25 | 37.19944 | 147.82084 | 40007 ft | 396 kts | 243° |
| 2026-05-07 14:26 | 37.17335 | 147.76013 | 40003 ft | 395 kts | 243° |
| 2026-05-07 14:26 | 37.14729 | 147.69960 | 39999 ft | 394 kts | 243° |
| 2026-05-07 14:27 | 37.12121 | 147.63915 | 40000 ft | 394 kts | 243° |
| 2026-05-07 14:27 | 37.09512 | 147.57878 | 39996 ft | 394 kts | 243° |
| 2026-05-07 14:28 | 37.06919 | 147.51892 | 39998 ft | 393 kts | 242° |
| 2026-05-07 14:28 | 37.04309 | 147.45875 | 39993 ft | 393 kts | 242° |
| 2026-05-07 14:29 | 37.01698 | 147.39868 | 39993 ft | 393 kts | 242° |
| 2026-05-07 14:29 | 36.99083 | 147.33863 | 39991 ft | 393 kts | 242° |
| 2026-05-07 14:30 | 36.96464 | 147.27860 | 39993 ft | 393 kts | 242° |
| 2026-05-07 14:30 | 36.93837 | 147.21860 | 39997 ft | 393 kts | 242° |
| 2026-05-07 14:31 | 36.91189 | 147.15878 | 39987 ft | 393 kts | 242° |
| 2026-05-07 14:31 | 36.88545 | 147.09885 | 39987 ft | 393 kts | 242° |
| 2026-05-07 14:32 | 36.85907 | 147.03891 | 39984 ft | 393 kts | 242° |
| 2026-05-07 14:32 | 36.83269 | 146.97903 | 39983 ft | 393 kts | 242° |
| 2026-05-07 14:33 | 36.80645 | 146.91955 | 39998 ft | 393 kts | 241° |
| 2026-05-07 14:33 | 36.78002 | 146.85974 | 39980 ft | 394 kts | 241° |
| 2026-05-07 14:34 | 36.75351 | 146.79985 | 39976 ft | 394 kts | 241° |
| 2026-05-07 14:34 | 36.72703 | 146.74015 | 39979 ft | 394 kts | 241° |
| 2026-05-07 14:35 | 36.70047 | 146.68038 | 39992 ft | 394 kts | 241° |
| 2026-05-07 14:35 | 36.67391 | 146.62071 | 39987 ft | 394 kts | 241° |
| 2026-05-07 14:36 | 36.64729 | 146.56102 | 39972 ft | 394 kts | 241° |
| 2026-05-07 14:36 | 36.62082 | 146.50177 | 39967 ft | 394 kts | 241° |
| 2026-05-07 14:37 | 36.59404 | 146.44194 | 39980 ft | 394 kts | 241° |
| 2026-05-07 14:37 | 36.55390 | 146.35248 | 39975 ft | 395 kts | 240° |
| 2026-05-07 14:38 | 36.52700 | 146.29293 | 39971 ft | 395 kts | 240° |
| 2026-05-07 14:38 | 36.50008 | 146.23375 | 39974 ft | 395 kts | 240° |
| 2026-05-07 14:39 | 36.47311 | 146.17422 | 39973 ft | 395 kts | 240° |
| 2026-05-07 14:39 | 36.44611 | 146.11455 | 39973 ft | 396 kts | 240° |
| 2026-05-07 14:40 | 36.41908 | 146.05487 | 39971 ft | 396 kts | 240° |
| 2026-05-07 14:40 | 36.39205 | 145.99528 | 39971 ft | 396 kts | 240° |
| 2026-05-07 14:41 | 36.36513 | 145.93605 | 39970 ft | 396 kts | 240° |
| 2026-05-07 14:41 | 36.33800 | 145.87647 | 39974 ft | 397 kts | 240° |
| 2026-05-07 14:42 | 36.31079 | 145.81682 | 39972 ft | 398 kts | 240° |
| 2026-05-07 14:42 | 36.28351 | 145.75712 | 39970 ft | 398 kts | 240° |
| 2026-05-07 14:43 | 36.25612 | 145.69729 | 39969 ft | 399 kts | 240° |
| 2026-05-07 14:43 | 36.22872 | 145.63755 | 39970 ft | 399 kts | 240° |
| 2026-05-07 14:44 | 36.20139 | 145.57806 | 39964 ft | 400 kts | 239° |
| 2026-05-07 14:44 | 36.17385 | 145.51822 | 39966 ft | 400 kts | 239° |
| 2026-05-07 14:45 | 36.14671 | 145.45819 | 39964 ft | 401 kts | 243° |
| 2026-05-07 14:45 | 36.13207 | 145.39150 | 39968 ft | 406 kts | 259° |
| 2026-05-07 14:46 | 36.12678 | 145.32165 | 39960 ft | 409 kts | 261° |
| 2026-05-07 14:46 | 36.12183 | 145.25164 | 39957 ft | 409 kts | 261° |
| 2026-05-07 14:47 | 36.11616 | 145.18165 | 39956 ft | 409 kts | 260° |
| 2026-05-07 14:47 | 36.11013 | 145.11177 | 39956 ft | 409 kts | 260° |
| 2026-05-07 14:48 | 36.10398 | 145.04178 | 39953 ft | 409 kts | 259° |
| 2026-05-07 14:48 | 36.09782 | 144.97222 | 39950 ft | 410 kts | 259° |
| 2026-05-07 14:49 | 36.09158 | 144.90210 | 39943 ft | 410 kts | 259° |
| 2026-05-07 14:49 | 36.08530 | 144.83196 | 39941 ft | 411 kts | 259° |
| 2026-05-07 14:50 | 36.07896 | 144.76172 | 39943 ft | 411 kts | 259° |
| 2026-05-07 14:50 | 36.07366 | 144.70333 | 39940 ft | 411 kts | 259° |
| 2026-05-07 14:51 | 36.06724 | 144.63302 | 39940 ft | 411 kts | 259° |
| 2026-05-07 14:51 | 36.05973 | 144.55133 | 39937 ft | 412 kts | 259° |
| 2026-05-07 14:52 | 36.05428 | 144.49238 | 39938 ft | 412 kts | 259° |
| 2026-05-07 14:52 | 36.04771 | 144.42192 | 39936 ft | 413 kts | 259° |
| 2026-05-07 14:53 | 36.04087 | 144.35146 | 39927 ft | 413 kts | 259° |
| 2026-05-07 14:53 | 36.03401 | 144.28090 | 39931 ft | 414 kts | 259° |
| 2026-05-07 14:54 | 36.02729 | 144.21065 | 39922 ft | 414 kts | 259° |
| 2026-05-07 14:54 | 36.02052 | 144.13988 | 39922 ft | 415 kts | 259° |
| 2026-05-07 14:55 | 36.01365 | 144.06902 | 39923 ft | 416 kts | 259° |
| 2026-05-07 14:55 | 36.00669 | 143.99816 | 39926 ft | 416 kts | 259° |
| 2026-05-07 14:56 | 35.99971 | 143.92714 | 39919 ft | 416 kts | 259° |
| 2026-05-07 14:56 | 35.99275 | 143.85649 | 39917 ft | 417 kts | 259° |
| 2026-05-07 14:57 | 35.98571 | 143.78541 | 39918 ft | 417 kts | 259° |
| 2026-05-07 14:57 | 35.97862 | 143.71429 | 39914 ft | 417 kts | 259° |
| 2026-05-07 14:58 | 35.97149 | 143.64312 | 39917 ft | 417 kts | 259° |
| 2026-05-07 14:58 | 35.96431 | 143.57200 | 39914 ft | 418 kts | 259° |
| 2026-05-07 14:59 | 35.95702 | 143.50086 | 39913 ft | 418 kts | 259° |
| 2026-05-07 14:59 | 35.94961 | 143.42969 | 39914 ft | 418 kts | 259° |
| 2026-05-07 15:00 | 35.94223 | 143.35844 | 39908 ft | 419 kts | 259° |
| 2026-05-07 15:00 | 35.93485 | 143.28710 | 39907 ft | 419 kts | 259° |
| 2026-05-07 15:01 | 35.92751 | 143.21601 | 39913 ft | 420 kts | 259° |
| 2026-05-07 15:01 | 35.92038 | 143.14457 | 39908 ft | 420 kts | 260° |
| 2026-05-07 15:02 | 35.91331 | 143.07301 | 39906 ft | 421 kts | 260° |
| 2026-05-07 15:02 | 35.90621 | 143.00138 | 39902 ft | 421 kts | 260° |
| 2026-05-07 15:03 | 35.89905 | 142.92963 | 39904 ft | 421 kts | 260° |
| 2026-05-07 15:03 | 35.89184 | 142.85792 | 39902 ft | 421 kts | 260° |
| 2026-05-07 15:04 | 35.88463 | 142.78665 | 39901 ft | 421 kts | 260° |
| 2026-05-07 15:04 | 35.87733 | 142.71492 | 39898 ft | 421 kts | 260° |
| 2026-05-07 15:05 | 35.87000 | 142.64324 | 39898 ft | 421 kts | 260° |
| 2026-05-07 15:05 | 35.86262 | 142.57165 | 39896 ft | 421 kts | 260° |
| 2026-05-07 15:06 | 35.85525 | 142.50035 | 39894 ft | 411 kts | 260° |
| 2026-05-07 15:06 | 35.84815 | 142.43184 | 39844 ft | 398 kts | 259° |
| 2026-05-07 15:07 | 35.84462 | 142.39805 | 38951 ft | 399 kts | 259° |
| 2026-05-07 15:07 | 35.84103 | 142.36405 | 37919 ft | 401 kts | 259° |
| 2026-05-07 15:07 | 35.83741 | 142.32985 | 36795 ft | 404 kts | 259° |
| 2026-05-07 15:07 | 35.83374 | 142.29524 | 35678 ft | 407 kts | 259° |
| 2026-05-07 15:08 | 35.83010 | 142.26096 | 34589 ft | 411 kts | 259° |
| 2026-05-07 15:08 | 35.82636 | 142.22587 | 33411 ft | 414 kts | 259° |
| 2026-05-07 15:08 | 35.82249 | 142.19057 | 32124 ft | 417 kts | 258° |
| 2026-05-07 15:08 | 35.81855 | 142.15502 | 30808 ft | 421 kts | 258° |
| 2026-05-07 15:09 | 35.81459 | 142.11911 | 29417 ft | 425 kts | 258° |
| 2026-05-07 15:09 | 35.81061 | 142.08285 | 27836 ft | 429 kts | 259° |
| 2026-05-07 15:09 | 35.80662 | 142.04621 | 26379 ft | 432 kts | 259° |
| 2026-05-07 15:09 | 35.80268 | 142.00973 | 25259 ft | 426 kts | 260° |
| 2026-05-07 15:10 | 35.79880 | 141.97378 | 24206 ft | 420 kts | 260° |
| 2026-05-07 15:10 | 35.79496 | 141.93825 | 23125 ft | 415 kts | 261° |
| 2026-05-07 15:10 | 35.79116 | 141.90323 | 21988 ft | 409 kts | 261° |
| 2026-05-07 15:10 | 35.78742 | 141.86876 | 20920 ft | 403 kts | 261° |
| 2026-05-07 15:11 | 35.78378 | 141.83526 | 19919 ft | 397 kts | 261° |
| 2026-05-07 15:11 | 35.78015 | 141.80175 | 18941 ft | 392 kts | 261° |
| 2026-05-07 15:11 | 35.77676 | 141.76874 | 17964 ft | 387 kts | 263° |
| 2026-05-07 15:11 | 35.77489 | 141.73594 | 17002 ft | 380 kts | 265° |
| 2026-05-07 15:12 | 35.77398 | 141.70374 | 16113 ft | 372 kts | 266° |
| 2026-05-07 15:12 | 35.77342 | 141.67221 | 15250 ft | 364 kts | 266° |
| 2026-05-07 15:12 | 35.77293 | 141.64134 | 14431 ft | 356 kts | 266° |
| 2026-05-07 15:12 | 35.77243 | 141.61124 | 13634 ft | 348 kts | 266° |
| 2026-05-07 15:13 | 35.77190 | 141.58164 | 12701 ft | 343 kts | 266° |
| 2026-05-07 15:13 | 35.77134 | 141.55274 | 11774 ft | 339 kts | 265° |
| 2026-05-07 15:13 | 35.77076 | 141.52383 | 10909 ft | 336 kts | 265° |
| 2026-05-07 15:13 | 35.77016 | 141.49526 | 10051 ft | 332 kts | 265° |
| 2026-05-07 15:14 | 35.76956 | 141.46741 | 9737 ft | 314 kts | 265° |
| 2026-05-07 15:14 | 35.76900 | 141.44139 | 9614 ft | 294 kts | 265° |
| 2026-05-07 15:14 | 35.76847 | 141.41702 | 9459 ft | 275 kts | 265° |
| 2026-05-07 15:14 | 35.76796 | 141.39410 | 9337 ft | 260 kts | 265° |
| 2026-05-07 15:15 | 35.76746 | 141.37216 | 8970 ft | 255 kts | 265° |
| 2026-05-07 15:15 | 35.76693 | 141.35041 | 8515 ft | 253 kts | 264° |
| 2026-05-07 15:15 | 35.76641 | 141.32877 | 8073 ft | 252 kts | 265° |
| 2026-05-07 15:15 | 35.76589 | 141.30717 | 7643 ft | 251 kts | 265° |
| 2026-05-07 15:16 | 35.76537 | 141.28572 | 7236 ft | 250 kts | 265° |
| 2026-05-07 15:16 | 35.76486 | 141.26435 | 6820 ft | 249 kts | 265° |
| 2026-05-07 15:16 | 35.76436 | 141.24333 | 6408 ft | 248 kts | 265° |
| 2026-05-07 15:16 | 35.76385 | 141.22212 | 5977 ft | 247 kts | 265° |
| 2026-05-07 15:17 | 35.76347 | 141.20102 | 5560 ft | 246 kts | 266° |
| 2026-05-07 15:17 | 35.76337 | 141.18010 | 5188 ft | 242 kts | 266° |
| 2026-05-07 15:17 | 35.76333 | 141.15952 | 4828 ft | 239 kts | 266° |
| 2026-05-07 15:17 | 35.76331 | 141.13920 | 4453 ft | 236 kts | 266° |
| 2026-05-07 15:18 | 35.76329 | 141.11906 | 4172 ft | 236 kts | 266° |
| 2026-05-07 15:18 | 35.76326 | 141.09863 | 4040 ft | 238 kts | 266° |
| 2026-05-07 15:18 | 35.76324 | 141.07820 | 4018 ft | 239 kts | 266° |
| 2026-05-07 15:18 | 35.76321 | 141.05775 | 4018 ft | 238 kts | 266° |
| 2026-05-07 15:19 | 35.76374 | 141.03738 | 4011 ft | 240 kts | 272° |
| 2026-05-07 15:19 | 35.76729 | 141.01723 | 4006 ft | 244 kts | 284° |
| 2026-05-07 15:19 | 35.77446 | 140.99807 | 4014 ft | 248 kts | 292° |
| 2026-05-07 15:19 | 35.78280 | 140.97940 | 4014 ft | 249 kts | 294° |
| 2026-05-07 15:20 | 35.79133 | 140.96085 | 4013 ft | 248 kts | 294° |
| 2026-05-07 15:20 | 35.79988 | 140.94236 | 4013 ft | 249 kts | 294° |
| 2026-05-07 15:20 | 35.80832 | 140.92415 | 4006 ft | 248 kts | 294° |
| 2026-05-07 15:20 | 35.81687 | 140.90566 | 4009 ft | 249 kts | 294° |
| 2026-05-07 15:21 | 35.82545 | 140.88712 | 4010 ft | 249 kts | 294° |
| 2026-05-07 15:21 | 35.83403 | 140.86858 | 4007 ft | 249 kts | 294° |
| 2026-05-07 15:21 | 35.84261 | 140.85001 | 4007 ft | 249 kts | 294° |
| 2026-05-07 15:21 | 35.85119 | 140.83147 | 4005 ft | 249 kts | 294° |
| 2026-05-07 15:22 | 35.85979 | 140.81284 | 4010 ft | 250 kts | 294° |
| 2026-05-07 15:22 | 35.86838 | 140.79425 | 4008 ft | 250 kts | 294° |
| 2026-05-07 15:22 | 35.87701 | 140.77553 | 4008 ft | 251 kts | 294° |
| 2026-05-07 15:22 | 35.88568 | 140.75673 | 4007 ft | 252 kts | 294° |
| 2026-05-07 15:23 | 35.89419 | 140.73828 | 4005 ft | 250 kts | 294° |
| 2026-05-07 15:23 | 35.90280 | 140.71960 | 4004 ft | 250 kts | 294° |
| 2026-05-07 15:23 | 35.91141 | 140.70091 | 4008 ft | 251 kts | 295° |
| 2026-05-07 15:23 | 35.92000 | 140.68224 | 4010 ft | 251 kts | 295° |
| 2026-05-07 15:24 | 35.92863 | 140.66349 | 4011 ft | 252 kts | 295° |
| 2026-05-07 15:24 | 35.93727 | 140.64469 | 4009 ft | 252 kts | 295° |
| 2026-05-07 15:24 | 35.94592 | 140.62586 | 4013 ft | 252 kts | 295° |
| 2026-05-07 15:24 | 35.95456 | 140.60705 | 4011 ft | 252 kts | 295° |
| 2026-05-07 15:25 | 35.96322 | 140.58819 | 4011 ft | 252 kts | 295° |
| 2026-05-07 15:25 | 35.97186 | 140.56937 | 4015 ft | 252 kts | 295° |
| 2026-05-07 15:25 | 35.98005 | 140.55031 | 4009 ft | 251 kts | 288° |
| 2026-05-07 15:25 | 35.98465 | 140.52972 | 4015 ft | 249 kts | 279° |
| 2026-05-07 15:26 | 35.98779 | 140.50864 | 4014 ft | 249 kts | 277° |
| 2026-05-07 15:26 | 35.99067 | 140.48754 | 4012 ft | 249 kts | 277° |
| 2026-05-07 15:26 | 35.99351 | 140.46643 | 4016 ft | 250 kts | 277° |
| 2026-05-07 15:26 | 35.99635 | 140.44521 | 4013 ft | 251 kts | 277° |
| 2026-05-07 15:27 | 35.99919 | 140.42387 | 3887 ft | 252 kts | 277° |
| 2026-05-07 15:27 | 36.00199 | 140.40293 | 3719 ft | 250 kts | 277° |
| 2026-05-07 15:27 | 36.00482 | 140.38171 | 3528 ft | 250 kts | 277° |
| 2026-05-07 15:27 | 36.00765 | 140.36053 | 3355 ft | 250 kts | 278° |
| 2026-05-07 15:28 | 36.00989 | 140.33931 | 3163 ft | 249 kts | 270° |
| 2026-05-07 15:28 | 36.00664 | 140.31876 | 3050 ft | 240 kts | 247° |
| 2026-05-07 15:28 | 35.99961 | 140.30177 | 3011 ft | 202 kts | 241° |
| 2026-05-07 15:28 | 35.99325 | 140.28818 | 2950 ft | 166 kts | 240° |
| 2026-05-07 15:29 | 35.98786 | 140.27678 | 2983 ft | 145 kts | 240° |
| 2026-05-07 15:29 | 35.98264 | 140.26626 | 3014 ft | 142 kts | 235° |
| 2026-05-07 15:29 | 35.97593 | 140.25731 | 2999 ft | 143 kts | 221° |
| 2026-05-07 15:29 | 35.96740 | 140.25096 | 3010 ft | 145 kts | 206° |
| 2026-05-07 15:30 | 35.95753 | 140.24786 | 2964 ft | 148 kts | 189° |
| 2026-05-07 15:30 | 35.94716 | 140.24863 | 2901 ft | 151 kts | 172° |
| 2026-05-07 15:30 | 35.93748 | 140.25338 | 2804 ft | 151 kts | 156° |
| 2026-05-07 15:30 | 35.92802 | 140.25908 | 2835 ft | 152 kts | 159° |
| 2026-05-07 15:31 | 35.91854 | 140.26486 | 2806 ft | 152 kts | 158° |
| 2026-05-07 15:31 | 35.90917 | 140.27096 | 2833 ft | 152 kts | 157° |
| 2026-05-07 15:31 | 35.89994 | 140.27729 | 2809 ft | 152 kts | 154° |
| 2026-05-07 15:31 | 35.89086 | 140.28408 | 2779 ft | 153 kts | 154° |
| 2026-05-07 15:32 | 35.88175 | 140.29081 | 2582 ft | 152 kts | 155° |
| 2026-05-07 15:32 | 35.87266 | 140.29746 | 2384 ft | 152 kts | 155° |
| 2026-05-07 15:32 | 35.86356 | 140.30408 | 2186 ft | 151 kts | 156° |
| 2026-05-07 15:32 | 35.85445 | 140.31052 | 1992 ft | 150 kts | 157° |
| 2026-05-07 15:33 | 35.84548 | 140.31691 | 1801 ft | 149 kts | 157° |
| 2026-05-07 15:33 | 35.83664 | 140.32346 | 1600 ft | 147 kts | 158° |
| 2026-05-07 15:33 | 35.82796 | 140.32978 | 1397 ft | 147 kts | 156° |
| 2026-05-07 15:33 | 35.81917 | 140.33608 | 1201 ft | 145 kts | 156° |
| 2026-05-07 15:34 | 35.81124 | 140.34168 | 1023 ft | 145 kts | 155° |
| 2026-05-07 15:34 | 35.80262 | 140.34804 | 839 ft | 144 kts | 153° |
| 2026-05-07 15:34 | 35.79402 | 140.35429 | 636 ft | 144 kts | 153° |
| 2026-05-07 15:34 | 35.78541 | 140.36037 | 455 ft | 142 kts | 151° |
| 2026-05-07 15:35 | 35.77686 | 140.36672 | 239 ft | 143 kts | 153° |
| 2026-05-07 15:35 | 35.76841 | 140.37257 | 152 ft | 126 kts | 150° |
| 2026-05-07 15:35 | 35.76204 | 140.37739 | 151 ft | 89 kts | 156° |
| 2026-05-07 15:35 | 35.75777 | 140.38027 | 154 ft | 54 kts | 149° |
| 2026-05-07 15:36 | 35.75463 | 140.38246 | 152 ft | 50 kts | 149° |
| 2026-05-07 15:36 | 35.75238 | 140.38434 | 150 ft | 32 kts | 133° |
| 2026-05-07 15:36 | 35.75126 | 140.38645 | 152 ft | 21 kts | 115° |
| 2026-05-07 15:36 | 35.75130 | 140.38760 | 152 ft | 10 kts | 65° |
| 2026-05-07 15:37 | 35.75181 | 140.38831 | 152 ft | 13 kts | 37° |
| 2026-05-07 15:37 | 35.75267 | 140.38885 | 152 ft | 17 kts | 24° |
| 2026-05-07 15:37 | 35.75402 | 140.38956 | 152 ft | 25 kts | 23° |
| 2026-05-07 15:37 | 35.75584 | 140.39054 | 152 ft | 32 kts | 25° |
| 2026-05-07 15:38 | 35.75736 | 140.39188 | 151 ft | 12 kts | 41° |
| 2026-05-07 15:38 | 35.75770 | 140.39210 | 151 ft | 1 kts | 11° |
| 2026-05-07 15:38 | 35.75810 | 140.39210 | 151 ft | 12 kts | 1° |
| 2026-05-07 15:38 | 35.75935 | 140.39214 | 151 ft | 22 kts | 345° |
| 2026-05-07 15:39 | 35.76008 | 140.39167 | 151 ft | 0 kts | 329° |
| 2026-05-07 15:39 | 35.76008 | 140.39166 | 151 ft | 0 kts | 329° |
| 2026-05-07 15:39 | 35.76009 | 140.39166 | 151 ft | 0 kts | 329° |
| 2026-05-07 15:39 | 35.76010 | 140.39165 | 151 ft | 0 kts | 329° |
| 2026-05-07 15:40 | 35.76054 | 140.39128 | 151 ft | 9 kts | 317° |
| 2026-05-07 15:40 | 35.76091 | 140.39073 | 151 ft | 8 kts | 304° |
| 2026-05-07 15:40 | 35.76100 | 140.39015 | 152 ft | 9 kts | 264° |
| 2026-05-07 15:41 | 35.76057 | 140.38950 | 152 ft | 12 kts | 213° |
| 2026-05-07 15:41 | 35.75957 | 140.38894 | 152 ft | 19 kts | 203° |
| 2026-05-07 15:41 | 35.75811 | 140.38816 | 152 ft | 25 kts | 205° |
| 2026-05-07 15:41 | 35.75694 | 140.38674 | 152 ft | 22 kts | 249° |
| 2026-05-07 15:42 | 35.75714 | 140.38573 | 152 ft | 9 kts | 315° |
| 2026-05-07 15:42 | 35.75773 | 140.38529 | 152 ft | 16 kts | 330° |
| 2026-05-07 15:42 | 35.75879 | 140.38454 | 152 ft | 18 kts | 330° |
| 2026-05-07 15:42 | 35.75985 | 140.38381 | 152 ft | 17 kts | 330° |
| 2026-05-07 15:43 | 35.76086 | 140.38307 | 151 ft | 17 kts | 329° |
| 2026-05-07 15:43 | 35.76194 | 140.38230 | 151 ft | 19 kts | 330° |
| 2026-05-07 15:43 | 35.76309 | 140.38149 | 151 ft | 20 kts | 330° |
| 2026-05-07 15:43 | 35.76428 | 140.38062 | 151 ft | 18 kts | 335° |
| 2026-05-07 15:44 | 35.76542 | 140.38076 | 151 ft | 17 kts | 22° |
| 2026-05-07 15:44 | 35.76634 | 140.38143 | 151 ft | 10 kts | 43° |
| 2026-05-07 15:44 | 35.76644 | 140.38168 | 151 ft | 2 kts | 77° |
| 2026-05-07 15:44 | 35.76640 | 140.38184 | 168 ft | 0 kts | 114° |
| 2026-05-07 15:45 | 35.76634 | 140.38192 | 171 ft | 1 kts | 126° |
| 2026-05-07 15:45 | 35.76623 | 140.38205 | 146 ft | 2 kts | 140° |
| 2026-05-07 15:45 | 35.76612 | 140.38208 | 151 ft | 2 kts | 171° |
| 2026-05-07 15:45 | 35.76594 | 140.38211 | 151 ft | 3 kts | 171° |
| 2026-05-07 15:46 | 35.76554 | 140.38221 | 151 ft | 3 kts | 168° |
| 2026-05-07 15:46 | 35.76535 | 140.38226 | 151 ft | 3 kts | 168° |
| 2026-05-07 15:46 | 35.76525 | 140.38228 | 151 ft | 1 kts | 167° |
| 2026-05-07 15:47 | 35.76533 | 140.38226 | 151 ft | 2 kts | 167° |
| 2026-05-07 15:47 | 35.76532 | 140.38226 | 151 ft | 0 kts | 168° |